<?xml version='1.0' encoding='UTF-8'?><gpx version="1.1" creator="JPX - https://github.com/jenetics/jpx" xmlns="http://www.topografix.com/GPX/1/1"><trk><trkseg><trkpt lat="43.4318779" lon="0.5837864"><ele>200.00000000000003</ele><time>2026-04-23T11:24:51.469Z</time></trkpt><trkpt lat="43.4318848" lon="0.5839025"><ele>200.0</ele><time>2026-04-23T11:24:55.469Z</time></trkpt><trkpt lat="43.4318875" lon="0.5839956"><ele>200.0</ele><time>2026-04-23T11:24:58.469Z</time></trkpt><trkpt lat="43.4318934" lon="0.584089"><ele>200.0</ele><time>2026-04-23T11:25:01.469Z</time></trkpt><trkpt lat="43.4318964" lon="0.5841947"><ele>200.0</ele><time>2026-04-23T11:25:05.469Z</time></trkpt><trkpt lat="43.4318887" lon="0.5842865"><ele>200.00000000000003</ele><time>2026-04-23T11:25:08.469Z</time></trkpt><trkpt lat="43.431887" lon="0.5843824"><ele>200.0</ele><time>2026-04-23T11:25:11.469Z</time></trkpt><trkpt lat="43.4318995" lon="0.5844701"><ele>200.14285714285717</ele><time>2026-04-23T11:25:14.469Z</time></trkpt><trkpt lat="43.4319173" lon="0.584558"><ele>200.28571428571428</ele><time>2026-04-23T11:25:17.469Z</time></trkpt><trkpt lat="43.4319439" lon="0.5846465"><ele>200.42857142857144</ele><time>2026-04-23T11:25:20.47Z</time></trkpt><trkpt lat="43.4319815" lon="0.5847444"><ele>200.57142857142858</ele><time>2026-04-23T11:25:24.469Z</time></trkpt><trkpt lat="43.432017" lon="0.5848228"><ele>200.71428571428572</ele><time>2026-04-23T11:25:27.469Z</time></trkpt><trkpt lat="43.4320474" lon="0.5849134"><ele>200.85714285714286</ele><time>2026-04-23T11:25:30.469Z</time></trkpt><trkpt lat="43.4320801" lon="0.5850016"><ele>201.0</ele><time>2026-04-23T11:25:33.469Z</time></trkpt><trkpt lat="43.4321174" lon="0.5850862"><ele>201.0</ele><time>2026-04-23T11:25:36.469Z</time></trkpt><trkpt lat="43.4321499" lon="0.5851749"><ele>201.0</ele><time>2026-04-23T11:25:39.468Z</time></trkpt><trkpt lat="43.4321723" lon="0.5852625"><ele>201.0</ele><time>2026-04-23T11:25:42.469Z</time></trkpt><trkpt lat="43.432199" lon="0.5853424"><ele>201.0</ele><time>2026-04-23T11:25:45.469Z</time></trkpt><trkpt lat="43.4322254" lon="0.585432"><ele>201.0</ele><time>2026-04-23T11:25:48.47Z</time></trkpt><trkpt lat="43.4322532" lon="0.5855165"><ele>201.0</ele><time>2026-04-23T11:25:51.469Z</time></trkpt><trkpt lat="43.4322838" lon="0.5856005"><ele>201.0</ele><time>2026-04-23T11:25:54.469Z</time></trkpt><trkpt lat="43.4323221" lon="0.5856976"><ele>200.7142857142857</ele><time>2026-04-23T11:25:58.469Z</time></trkpt><trkpt lat="43.4323596" lon="0.5857928"><ele>200.42857142857144</ele><time>2026-04-23T11:26:02.469Z</time></trkpt><trkpt lat="43.4323845" lon="0.5858827"><ele>200.14285714285714</ele><time>2026-04-23T11:26:05.469Z</time></trkpt><trkpt lat="43.4324156" lon="0.5859693"><ele>199.85714285714283</ele><time>2026-04-23T11:26:08.469Z</time></trkpt><trkpt lat="43.4324456" lon="0.5860593"><ele>199.57142857142856</ele><time>2026-04-23T11:26:11.469Z</time></trkpt><trkpt lat="43.4324776" lon="0.5861465"><ele>199.28571428571428</ele><time>2026-04-23T11:26:14.469Z</time></trkpt><trkpt lat="43.4325105" lon="0.5862262"><ele>199.0</ele><time>2026-04-23T11:26:17.469Z</time></trkpt><trkpt lat="43.4325374" lon="0.5863051"><ele>198.99999999999997</ele><time>2026-04-23T11:26:20.469Z</time></trkpt><trkpt lat="43.4325642" lon="0.586408"><ele>199.0</ele><time>2026-04-23T11:26:24.469Z</time></trkpt><trkpt lat="43.4326018" lon="0.5865132"><ele>199.0</ele><time>2026-04-23T11:26:28.469Z</time></trkpt><trkpt lat="43.4326306" lon="0.5866039"><ele>199.0</ele><time>2026-04-23T11:26:31.469Z</time></trkpt><trkpt lat="43.4326631" lon="0.5866915"><ele>199.0</ele><time>2026-04-23T11:26:34.47Z</time></trkpt><trkpt lat="43.432691" lon="0.5867769"><ele>198.99999999999997</ele><time>2026-04-23T11:26:37.469Z</time></trkpt><trkpt lat="43.4327089" lon="0.5868697"><ele>199.0</ele><time>2026-04-23T11:26:40.469Z</time></trkpt><trkpt lat="43.4327398" lon="0.5869561"><ele>199.28571428571428</ele><time>2026-04-23T11:26:43.469Z</time></trkpt><trkpt lat="43.4327592" lon="0.5870428"><ele>199.57142857142856</ele><time>2026-04-23T11:26:46.469Z</time></trkpt><trkpt lat="43.4327813" lon="0.5871327"><ele>199.85714285714283</ele><time>2026-04-23T11:26:49.47Z</time></trkpt><trkpt lat="43.4328008" lon="0.587224"><ele>200.14285714285714</ele><time>2026-04-23T11:26:52.47Z</time></trkpt><trkpt lat="43.4328176" lon="0.5873099"><ele>200.42857142857144</ele><time>2026-04-23T11:26:55.469Z</time></trkpt><trkpt lat="43.4328324" lon="0.5874017"><ele>200.7142857142857</ele><time>2026-04-23T11:26:58.469Z</time></trkpt><trkpt lat="43.4328437" lon="0.5874917"><ele>201.0</ele><time>2026-04-23T11:27:01.469Z</time></trkpt><trkpt lat="43.4328548" lon="0.5875828"><ele>201.0</ele><time>2026-04-23T11:27:04.469Z</time></trkpt><trkpt lat="43.4328591" lon="0.5876749"><ele>201.0</ele><time>2026-04-23T11:27:07.469Z</time></trkpt><trkpt lat="43.4328643" lon="0.587765"><ele>201.0</ele><time>2026-04-23T11:27:10.469Z</time></trkpt><trkpt lat="43.4328691" lon="0.5878561"><ele>201.0</ele><time>2026-04-23T11:27:13.469Z</time></trkpt><trkpt lat="43.4328747" lon="0.5879478"><ele>201.0</ele><time>2026-04-23T11:27:16.469Z</time></trkpt><trkpt lat="43.4328841" lon="0.5880385"><ele>201.0</ele><time>2026-04-23T11:27:19.469Z</time></trkpt><trkpt lat="43.4328898" lon="0.5881289"><ele>201.0</ele><time>2026-04-23T11:27:22.469Z</time></trkpt><trkpt lat="43.432895" lon="0.5882202"><ele>200.85714285714286</ele><time>2026-04-23T11:27:25.469Z</time></trkpt><trkpt lat="43.4328934" lon="0.5883122"><ele>200.71428571428572</ele><time>2026-04-23T11:27:28.469Z</time></trkpt><trkpt lat="43.4329052" lon="0.5884089"><ele>200.57142857142858</ele><time>2026-04-23T11:27:31.469Z</time></trkpt><trkpt lat="43.4329121" lon="0.5885095"><ele>200.42857142857144</ele><time>2026-04-23T11:27:34.469Z</time></trkpt><trkpt lat="43.4329066" lon="0.5886018"><ele>200.28571428571428</ele><time>2026-04-23T11:27:37.47Z</time></trkpt><trkpt lat="43.4329123" lon="0.5886953"><ele>200.14285714285717</ele><time>2026-04-23T11:27:40.469Z</time></trkpt><trkpt lat="43.4329213" lon="0.5887857"><ele>200.0</ele><time>2026-04-23T11:27:43.47Z</time></trkpt><trkpt lat="43.4329373" lon="0.5888756"><ele>200.00000000000003</ele><time>2026-04-23T11:27:46.469Z</time></trkpt><trkpt lat="43.432955" lon="0.5889667"><ele>200.0</ele><time>2026-04-23T11:27:49.469Z</time></trkpt><trkpt lat="43.4329783" lon="0.5890537"><ele>200.0</ele><time>2026-04-23T11:27:52.469Z</time></trkpt><trkpt lat="43.4330241" lon="0.5891499"><ele>200.0</ele><time>2026-04-23T11:27:56.469Z</time></trkpt><trkpt lat="43.4330714" lon="0.5892307"><ele>200.0</ele><time>2026-04-23T11:27:59.469Z</time></trkpt><trkpt lat="43.4331182" lon="0.5893017"><ele>200.00000000000003</ele><time>2026-04-23T11:28:02.469Z</time></trkpt><trkpt lat="43.4331683" lon="0.5893694"><ele>200.0</ele><time>2026-04-23T11:28:05.47Z</time></trkpt><trkpt lat="43.4332507" lon="0.5894788"><ele>201.85714285714286</ele><time>2026-04-23T11:28:10.469Z</time></trkpt><trkpt lat="43.433301" lon="0.5895402"><ele>203.71428571428572</ele><time>2026-04-23T11:28:13.469Z</time></trkpt><trkpt lat="43.4333501" lon="0.5896157"><ele>205.57142857142856</ele><time>2026-04-23T11:28:16.469Z</time></trkpt><trkpt lat="43.4334004" lon="0.5896993"><ele>207.42857142857144</ele><time>2026-04-23T11:28:19.469Z</time></trkpt><trkpt lat="43.4334654" lon="0.5897397"><ele>209.28571428571428</ele><time>2026-04-23T11:28:24.47Z</time></trkpt><trkpt lat="43.4335389" lon="0.5897748"><ele>211.14285714285714</ele><time>2026-04-23T11:28:27.469Z</time></trkpt><trkpt lat="43.4336091" lon="0.5897951"><ele>213.0</ele><time>2026-04-23T11:28:30.469Z</time></trkpt><trkpt lat="43.4336859" lon="0.5898099"><ele>212.99999999999997</ele><time>2026-04-23T11:28:33.469Z</time></trkpt><trkpt lat="43.4337583" lon="0.5898209"><ele>213.0</ele><time>2026-04-23T11:28:36.469Z</time></trkpt><trkpt lat="43.4338303" lon="0.5897936"><ele>213.0</ele><time>2026-04-23T11:28:39.469Z</time></trkpt><trkpt lat="43.4338977" lon="0.5897435"><ele>213.0</ele><time>2026-04-23T11:28:42.469Z</time></trkpt><trkpt lat="43.4339629" lon="0.5896857"><ele>213.0</ele><time>2026-04-23T11:28:45.469Z</time></trkpt><trkpt lat="43.4340316" lon="0.5896506"><ele>212.99999999999997</ele><time>2026-04-23T11:28:48.469Z</time></trkpt><trkpt lat="43.4340996" lon="0.5896085"><ele>213.0</ele><time>2026-04-23T11:28:51.469Z</time></trkpt><trkpt lat="43.4341662" lon="0.5895649"><ele>212.99999999999997</ele><time>2026-04-23T11:28:54.469Z</time></trkpt><trkpt lat="43.4342335" lon="0.589538"><ele>213.0</ele><time>2026-04-23T11:28:57.469Z</time></trkpt><trkpt lat="43.4343071" lon="0.5894936"><ele>213.0</ele><time>2026-04-23T11:29:00.469Z</time></trkpt><trkpt lat="43.4343741" lon="0.5894593"><ele>213.0</ele><time>2026-04-23T11:29:03.469Z</time></trkpt><trkpt lat="43.4344404" lon="0.5894167"><ele>213.0</ele><time>2026-04-23T11:29:06.47Z</time></trkpt><trkpt lat="43.4345046" lon="0.5893846"><ele>212.99999999999997</ele><time>2026-04-23T11:29:09.469Z</time></trkpt><trkpt lat="43.4345683" lon="0.5893569"><ele>213.0</ele><time>2026-04-23T11:29:12.469Z</time></trkpt><trkpt lat="43.4346373" lon="0.5893319"><ele>211.99999999999997</ele><time>2026-04-23T11:29:15.469Z</time></trkpt><trkpt lat="43.4347021" lon="0.5892898"><ele>211.0</ele><time>2026-04-23T11:29:18.47Z</time></trkpt><trkpt lat="43.4347695" lon="0.589251"><ele>210.0</ele><time>2026-04-23T11:29:21.469Z</time></trkpt><trkpt lat="43.434834" lon="0.5892169"><ele>209.0</ele><time>2026-04-23T11:29:24.47Z</time></trkpt><trkpt lat="43.4348992" lon="0.589182"><ele>208.0</ele><time>2026-04-23T11:29:27.469Z</time></trkpt><trkpt lat="43.4349687" lon="0.5891455"><ele>206.99999999999997</ele><time>2026-04-23T11:29:30.469Z</time></trkpt><trkpt lat="43.4350363" lon="0.5891231"><ele>206.0</ele><time>2026-04-23T11:29:33.469Z</time></trkpt><trkpt lat="43.4351024" lon="0.589085"><ele>205.99999999999997</ele><time>2026-04-23T11:29:36.469Z</time></trkpt><trkpt lat="43.4351629" lon="0.5890426"><ele>206.0</ele><time>2026-04-23T11:29:39.469Z</time></trkpt><trkpt lat="43.4352305" lon="0.5890053"><ele>206.0</ele><time>2026-04-23T11:29:42.469Z</time></trkpt><trkpt lat="43.4352906" lon="0.5889611"><ele>206.0</ele><time>2026-04-23T11:29:45.469Z</time></trkpt><trkpt lat="43.4353556" lon="0.5889074"><ele>206.0</ele><time>2026-04-23T11:29:48.469Z</time></trkpt><trkpt lat="43.4354145" lon="0.5888566"><ele>205.99999999999997</ele><time>2026-04-23T11:29:51.47Z</time></trkpt><trkpt lat="43.4354744" lon="0.588805"><ele>206.0</ele><time>2026-04-23T11:29:54.47Z</time></trkpt><trkpt lat="43.4355335" lon="0.5887534"><ele>205.16666666666669</ele><time>2026-04-23T11:29:57.469Z</time></trkpt><trkpt lat="43.4355945" lon="0.5887008"><ele>204.33333333333334</ele><time>2026-04-23T11:30:00.469Z</time></trkpt><trkpt lat="43.4356543" lon="0.5886512"><ele>203.5</ele><time>2026-04-23T11:30:03.469Z</time></trkpt><trkpt lat="43.4357237" lon="0.5886106"><ele>202.66666666666669</ele><time>2026-04-23T11:30:06.469Z</time></trkpt><trkpt lat="43.4357913" lon="0.5885607"><ele>201.83333333333334</ele><time>2026-04-23T11:30:09.469Z</time></trkpt><trkpt lat="43.4358616" lon="0.5885166"><ele>201.0</ele><time>2026-04-23T11:30:12.469Z</time></trkpt><trkpt lat="43.4359348" lon="0.5884693"><ele>201.0</ele><time>2026-04-23T11:30:15.469Z</time></trkpt><trkpt lat="43.4360093" lon="0.5884458"><ele>201.0</ele><time>2026-04-23T11:30:18.469Z</time></trkpt><trkpt lat="43.4360834" lon="0.5884295"><ele>201.0</ele><time>2026-04-23T11:30:21.469Z</time></trkpt><trkpt lat="43.4361572" lon="0.5884171"><ele>201.0</ele><time>2026-04-23T11:30:24.469Z</time></trkpt><trkpt lat="43.4362303" lon="0.5884135"><ele>201.0</ele><time>2026-04-23T11:30:27.47Z</time></trkpt><trkpt lat="43.4363023" lon="0.5884152"><ele>201.0</ele><time>2026-04-23T11:30:30.47Z</time></trkpt><trkpt lat="43.4363744" lon="0.5884168"><ele>201.0</ele><time>2026-04-23T11:30:33.469Z</time></trkpt><trkpt lat="43.4364457" lon="0.5884344"><ele>201.28571428571428</ele><time>2026-04-23T11:30:36.469Z</time></trkpt><trkpt lat="43.4365157" lon="0.5884508"><ele>201.57142857142858</ele><time>2026-04-23T11:30:39.469Z</time></trkpt><trkpt lat="43.4365855" lon="0.5884595"><ele>201.85714285714286</ele><time>2026-04-23T11:30:42.469Z</time></trkpt><trkpt lat="43.4366559" lon="0.5884684"><ele>202.14285714285714</ele><time>2026-04-23T11:30:45.469Z</time></trkpt><trkpt lat="43.4367272" lon="0.5884795"><ele>202.42857142857144</ele><time>2026-04-23T11:30:48.47Z</time></trkpt><trkpt lat="43.4368012" lon="0.5884782"><ele>202.71428571428572</ele><time>2026-04-23T11:30:51.469Z</time></trkpt><trkpt lat="43.4368711" lon="0.5884631"><ele>203.0</ele><time>2026-04-23T11:30:54.469Z</time></trkpt><trkpt lat="43.4369385" lon="0.5884702"><ele>203.0</ele><time>2026-04-23T11:30:57.47Z</time></trkpt><trkpt lat="43.4370111" lon="0.5884642"><ele>203.0</ele><time>2026-04-23T11:31:00.469Z</time></trkpt><trkpt lat="43.4370896" lon="0.5884458"><ele>203.0</ele><time>2026-04-23T11:31:03.469Z</time></trkpt><trkpt lat="43.4371543" lon="0.5884333"><ele>203.0</ele><time>2026-04-23T11:31:06.469Z</time></trkpt><trkpt lat="43.437221" lon="0.5884186"><ele>203.0</ele><time>2026-04-23T11:31:09.469Z</time></trkpt><trkpt lat="43.4372869" lon="0.5884016"><ele>203.0</ele><time>2026-04-23T11:31:12.469Z</time></trkpt><trkpt lat="43.4373572" lon="0.5883951"><ele>203.0</ele><time>2026-04-23T11:31:15.47Z</time></trkpt><trkpt lat="43.4374232" lon="0.5883971"><ele>202.71428571428572</ele><time>2026-04-23T11:31:18.469Z</time></trkpt><trkpt lat="43.4374876" lon="0.5884053"><ele>202.42857142857144</ele><time>2026-04-23T11:31:21.469Z</time></trkpt><trkpt lat="43.4375531" lon="0.5884151"><ele>202.14285714285714</ele><time>2026-04-23T11:31:24.469Z</time></trkpt><trkpt lat="43.4376185" lon="0.5884351"><ele>201.85714285714286</ele><time>2026-04-23T11:31:27.469Z</time></trkpt><trkpt lat="43.4376806" lon="0.5884758"><ele>201.57142857142858</ele><time>2026-04-23T11:31:30.469Z</time></trkpt><trkpt lat="43.4377402" lon="0.5885184"><ele>201.28571428571428</ele><time>2026-04-23T11:31:33.469Z</time></trkpt><trkpt lat="43.4378021" lon="0.5885605"><ele>201.0</ele><time>2026-04-23T11:31:36.469Z</time></trkpt><trkpt lat="43.4378666" lon="0.5886069"><ele>201.0</ele><time>2026-04-23T11:31:39.469Z</time></trkpt><trkpt lat="43.4379299" lon="0.5886512"><ele>201.0</ele><time>2026-04-23T11:31:42.469Z</time></trkpt><trkpt lat="43.4379873" lon="0.5887074"><ele>201.0</ele><time>2026-04-23T11:31:45.469Z</time></trkpt><trkpt lat="43.4380477" lon="0.5887766"><ele>201.0</ele><time>2026-04-23T11:31:48.47Z</time></trkpt><trkpt lat="43.4381018" lon="0.5888381"><ele>201.0</ele><time>2026-04-23T11:31:51.469Z</time></trkpt><trkpt lat="43.4381589" lon="0.5889133"><ele>201.0</ele><time>2026-04-23T11:31:54.469Z</time></trkpt><trkpt lat="43.4382099" lon="0.5889747"><ele>201.0</ele><time>2026-04-23T11:31:57.469Z</time></trkpt><trkpt lat="43.4382662" lon="0.589034"><ele>201.57142857142856</ele><time>2026-04-23T11:32:00.469Z</time></trkpt><trkpt lat="43.4383221" lon="0.5890973"><ele>202.14285714285717</ele><time>2026-04-23T11:32:03.469Z</time></trkpt><trkpt lat="43.4383777" lon="0.5891609"><ele>202.71428571428572</ele><time>2026-04-23T11:32:06.469Z</time></trkpt><trkpt lat="43.4384326" lon="0.5892147"><ele>203.28571428571428</ele><time>2026-04-23T11:32:09.469Z</time></trkpt><trkpt lat="43.4384871" lon="0.5892887"><ele>203.85714285714283</ele><time>2026-04-23T11:32:12.469Z</time></trkpt><trkpt lat="43.4385433" lon="0.5893486"><ele>204.42857142857144</ele><time>2026-04-23T11:32:15.469Z</time></trkpt><trkpt lat="43.4385966" lon="0.589403"><ele>205.0</ele><time>2026-04-23T11:32:18.47Z</time></trkpt><trkpt lat="43.4386524" lon="0.5894523"><ele>205.2857142857143</ele><time>2026-04-23T11:32:21.469Z</time></trkpt><trkpt lat="43.4387069" lon="0.5895236"><ele>205.57142857142856</ele><time>2026-04-23T11:32:24.469Z</time></trkpt><trkpt lat="43.4387568" lon="0.5895802"><ele>205.85714285714286</ele><time>2026-04-23T11:32:27.469Z</time></trkpt><trkpt lat="43.4388288" lon="0.5896421"><ele>206.14285714285717</ele><time>2026-04-23T11:32:31.469Z</time></trkpt><trkpt lat="43.438881" lon="0.5896939"><ele>206.42857142857144</ele><time>2026-04-23T11:32:34.469Z</time></trkpt><trkpt lat="43.4389314" lon="0.5897485"><ele>206.71428571428572</ele><time>2026-04-23T11:32:37.47Z</time></trkpt><trkpt lat="43.4389864" lon="0.5898112"><ele>207.0</ele><time>2026-04-23T11:32:40.469Z</time></trkpt><trkpt lat="43.4390444" lon="0.5898669"><ele>207.00000000000003</ele><time>2026-04-23T11:32:43.47Z</time></trkpt><trkpt lat="43.4391046" lon="0.5899081"><ele>207.0</ele><time>2026-04-23T11:32:46.469Z</time></trkpt><trkpt lat="43.4391681" lon="0.5899523"><ele>207.0</ele><time>2026-04-23T11:32:49.469Z</time></trkpt><trkpt lat="43.4392299" lon="0.5899911"><ele>207.0</ele><time>2026-04-23T11:32:52.469Z</time></trkpt><trkpt lat="43.4393005" lon="0.5900264"><ele>207.0</ele><time>2026-04-23T11:32:55.47Z</time></trkpt><trkpt lat="43.4393603" lon="0.5900713"><ele>207.00000000000003</ele><time>2026-04-23T11:32:58.469Z</time></trkpt><trkpt lat="43.439425" lon="0.5900983"><ele>207.0</ele><time>2026-04-23T11:33:01.469Z</time></trkpt><trkpt lat="43.4394867" lon="0.5901354"><ele>207.00000000000003</ele><time>2026-04-23T11:33:04.469Z</time></trkpt><trkpt lat="43.4395444" lon="0.5901872"><ele>207.0</ele><time>2026-04-23T11:33:07.469Z</time></trkpt><trkpt lat="43.4396057" lon="0.5902334"><ele>207.0</ele><time>2026-04-23T11:33:10.47Z</time></trkpt><trkpt lat="43.4396672" lon="0.5902789"><ele>207.0</ele><time>2026-04-23T11:33:13.469Z</time></trkpt><trkpt lat="43.4397297" lon="0.5903136"><ele>207.0</ele><time>2026-04-23T11:33:16.469Z</time></trkpt><trkpt lat="43.4397917" lon="0.5903456"><ele>207.00000000000003</ele><time>2026-04-23T11:33:19.47Z</time></trkpt><trkpt lat="43.4398553" lon="0.5903734"><ele>207.0</ele><time>2026-04-23T11:33:22.469Z</time></trkpt><trkpt lat="43.439917" lon="0.5904197"><ele>207.85714285714286</ele><time>2026-04-23T11:33:25.469Z</time></trkpt><trkpt lat="43.4399817" lon="0.5904632"><ele>208.71428571428572</ele><time>2026-04-23T11:33:28.469Z</time></trkpt><trkpt lat="43.440045" lon="0.5905186"><ele>209.57142857142856</ele><time>2026-04-23T11:33:31.47Z</time></trkpt><trkpt lat="43.4400978" lon="0.5906013"><ele>210.42857142857144</ele><time>2026-04-23T11:33:34.47Z</time></trkpt><trkpt lat="43.4401417" lon="0.5906669"><ele>211.28571428571428</ele><time>2026-04-23T11:33:37.469Z</time></trkpt><trkpt lat="43.4401938" lon="0.5907505"><ele>212.14285714285714</ele><time>2026-04-23T11:33:41.469Z</time></trkpt><trkpt lat="43.4402389" lon="0.5908361"><ele>213.0</ele><time>2026-04-23T11:33:45.469Z</time></trkpt><trkpt lat="43.4402742" lon="0.590931"><ele>212.99999999999997</ele><time>2026-04-23T11:33:49.469Z</time></trkpt><trkpt lat="43.4403129" lon="0.5910051"><ele>213.0</ele><time>2026-04-23T11:33:52.47Z</time></trkpt><trkpt lat="43.4403414" lon="0.5910836"><ele>213.0</ele><time>2026-04-23T11:33:55.47Z</time></trkpt><trkpt lat="43.44037" lon="0.5911616"><ele>213.0</ele><time>2026-04-23T11:33:58.469Z</time></trkpt><trkpt lat="43.4404009" lon="0.5912415"><ele>213.0</ele><time>2026-04-23T11:34:01.469Z</time></trkpt><trkpt lat="43.4404311" lon="0.5913213"><ele>212.99999999999997</ele><time>2026-04-23T11:34:04.47Z</time></trkpt><trkpt lat="43.4404782" lon="0.5914195"><ele>213.0</ele><time>2026-04-23T11:34:08.469Z</time></trkpt><trkpt lat="43.4405118" lon="0.591497"><ele>212.57142857142856</ele><time>2026-04-23T11:34:11.47Z</time></trkpt><trkpt lat="43.4405503" lon="0.5915728"><ele>212.14285714285714</ele><time>2026-04-23T11:34:14.469Z</time></trkpt><trkpt lat="43.4405984" lon="0.591642"><ele>211.71428571428572</ele><time>2026-04-23T11:34:17.469Z</time></trkpt><trkpt lat="43.4406538" lon="0.5916919"><ele>211.28571428571428</ele><time>2026-04-23T11:34:20.469Z</time></trkpt><trkpt lat="43.4407167" lon="0.5917299"><ele>210.85714285714286</ele><time>2026-04-23T11:34:23.469Z</time></trkpt><trkpt lat="43.440783" lon="0.5917742"><ele>210.42857142857142</ele><time>2026-04-23T11:34:26.469Z</time></trkpt><trkpt lat="43.4408498" lon="0.5917926"><ele>210.0</ele><time>2026-04-23T11:34:29.469Z</time></trkpt><trkpt lat="43.4409225" lon="0.5918066"><ele>210.0</ele><time>2026-04-23T11:34:32.469Z</time></trkpt><trkpt lat="43.440992" lon="0.5918105"><ele>210.0</ele><time>2026-04-23T11:34:35.469Z</time></trkpt><trkpt lat="43.441075" lon="0.5917918"><ele>210.0</ele><time>2026-04-23T11:34:39.469Z</time></trkpt><trkpt lat="43.441159" lon="0.5917922"><ele>210.0</ele><time>2026-04-23T11:34:43.469Z</time></trkpt><trkpt lat="43.441228" lon="0.5918041"><ele>210.0</ele><time>2026-04-23T11:34:46.47Z</time></trkpt><trkpt lat="43.4412906" lon="0.5918422"><ele>210.0</ele><time>2026-04-23T11:34:49.469Z</time></trkpt><trkpt lat="43.441332" lon="0.5919101"><ele>210.0</ele><time>2026-04-23T11:34:52.469Z</time></trkpt><trkpt lat="43.4413588" lon="0.5919993"><ele>211.28571428571428</ele><time>2026-04-23T11:34:55.469Z</time></trkpt><trkpt lat="43.4413867" lon="0.592085"><ele>212.57142857142856</ele><time>2026-04-23T11:34:58.469Z</time></trkpt><trkpt lat="43.4414056" lon="0.5921901"><ele>213.85714285714286</ele><time>2026-04-23T11:35:01.469Z</time></trkpt><trkpt lat="43.4414243" lon="0.592281"><ele>215.14285714285714</ele><time>2026-04-23T11:35:04.47Z</time></trkpt><trkpt lat="43.4414579" lon="0.5923742"><ele>216.42857142857142</ele><time>2026-04-23T11:35:08.47Z</time></trkpt><trkpt lat="43.4414693" lon="0.5924746"><ele>217.71428571428572</ele><time>2026-04-23T11:35:11.469Z</time></trkpt><trkpt lat="43.441479" lon="0.5925894"><ele>219.0</ele><time>2026-04-23T11:35:15.469Z</time></trkpt><trkpt lat="43.4414942" lon="0.5926856"><ele>219.0</ele><time>2026-04-23T11:35:18.469Z</time></trkpt><trkpt lat="43.4415145" lon="0.5927742"><ele>219.0</ele><time>2026-04-23T11:35:21.469Z</time></trkpt><trkpt lat="43.4415252" lon="0.5928618"><ele>219.0</ele><time>2026-04-23T11:35:24.469Z</time></trkpt><trkpt lat="43.44154" lon="0.592958"><ele>219.0</ele><time>2026-04-23T11:35:28.469Z</time></trkpt><trkpt lat="43.4415445" lon="0.5930506"><ele>219.0</ele><time>2026-04-23T11:35:31.469Z</time></trkpt><trkpt lat="43.4415587" lon="0.5931426"><ele>219.0</ele><time>2026-04-23T11:35:34.47Z</time></trkpt><trkpt lat="43.4415643" lon="0.59325"><ele>219.0</ele><time>2026-04-23T11:35:38.469Z</time></trkpt><trkpt lat="43.4415792" lon="0.5933665"><ele>219.57142857142858</ele><time>2026-04-23T11:35:42.469Z</time></trkpt><trkpt lat="43.441597" lon="0.5934793"><ele>220.14285714285714</ele><time>2026-04-23T11:35:46.469Z</time></trkpt><trkpt lat="43.4416027" lon="0.5935686"><ele>220.71428571428572</ele><time>2026-04-23T11:35:49.469Z</time></trkpt><trkpt lat="43.4416127" lon="0.5936552"><ele>221.28571428571428</ele><time>2026-04-23T11:35:52.47Z</time></trkpt><trkpt lat="43.4416223" lon="0.593748"><ele>221.85714285714283</ele><time>2026-04-23T11:35:55.469Z</time></trkpt><trkpt lat="43.4416278" lon="0.5938488"><ele>222.42857142857142</ele><time>2026-04-23T11:35:58.469Z</time></trkpt><trkpt lat="43.4416258" lon="0.593941"><ele>223.0</ele><time>2026-04-23T11:36:01.469Z</time></trkpt><trkpt lat="43.4416141" lon="0.5940265"><ele>223.28571428571428</ele><time>2026-04-23T11:36:04.469Z</time></trkpt><trkpt lat="43.44161" lon="0.5941275"><ele>223.57142857142856</ele><time>2026-04-23T11:36:07.469Z</time></trkpt><trkpt lat="43.4416106" lon="0.594224"><ele>223.8571428571429</ele><time>2026-04-23T11:36:10.469Z</time></trkpt><trkpt lat="43.4416046" lon="0.5943208"><ele>224.14285714285717</ele><time>2026-04-23T11:36:13.469Z</time></trkpt><trkpt lat="43.4416055" lon="0.5944192"><ele>224.42857142857144</ele><time>2026-04-23T11:36:16.469Z</time></trkpt><trkpt lat="43.4416033" lon="0.5945093"><ele>224.71428571428575</ele><time>2026-04-23T11:36:19.469Z</time></trkpt><trkpt lat="43.441599" lon="0.5945992"><ele>225.00000000000003</ele><time>2026-04-23T11:36:22.469Z</time></trkpt><trkpt lat="43.4415932" lon="0.5946902"><ele>225.28571428571433</ele><time>2026-04-23T11:36:25.469Z</time></trkpt><trkpt lat="43.4415821" lon="0.594777"><ele>225.57142857142858</ele><time>2026-04-23T11:36:28.469Z</time></trkpt><trkpt lat="43.4415658" lon="0.5948832"><ele>225.8571428571429</ele><time>2026-04-23T11:36:32.469Z</time></trkpt><trkpt lat="43.4415505" lon="0.5949902"><ele>226.14285714285717</ele><time>2026-04-23T11:36:36.469Z</time></trkpt><trkpt lat="43.4415507" lon="0.5950892"><ele>226.42857142857144</ele><time>2026-04-23T11:36:40.469Z</time></trkpt><trkpt lat="43.4415588" lon="0.5951804"><ele>226.71428571428572</ele><time>2026-04-23T11:36:43.469Z</time></trkpt><trkpt lat="43.441546" lon="0.5952796"><ele>227.0</ele><time>2026-04-23T11:36:46.469Z</time></trkpt><trkpt lat="43.4415248" lon="0.5953697"><ele>227.57142857142858</ele><time>2026-04-23T11:36:49.469Z</time></trkpt><trkpt lat="43.441508" lon="0.5954721"><ele>228.14285714285717</ele><time>2026-04-23T11:36:53.469Z</time></trkpt><trkpt lat="43.4414966" lon="0.5955626"><ele>228.71428571428572</ele><time>2026-04-23T11:36:56.469Z</time></trkpt><trkpt lat="43.4414878" lon="0.5956731"><ele>229.28571428571428</ele><time>2026-04-23T11:36:59.47Z</time></trkpt><trkpt lat="43.4414863" lon="0.5957869"><ele>229.85714285714286</ele><time>2026-04-23T11:37:03.469Z</time></trkpt><trkpt lat="43.4414843" lon="0.5958834"><ele>230.42857142857144</ele><time>2026-04-23T11:37:06.469Z</time></trkpt><trkpt lat="43.4414763" lon="0.5959825"><ele>231.0</ele><time>2026-04-23T11:37:09.47Z</time></trkpt><trkpt lat="43.4414671" lon="0.5960766"><ele>232.33333333333334</ele><time>2026-04-23T11:37:12.469Z</time></trkpt><trkpt lat="43.4414423" lon="0.5961701"><ele>233.66666666666669</ele><time>2026-04-23T11:37:15.47Z</time></trkpt><trkpt lat="43.4414259" lon="0.5962876"><ele>235.0</ele><time>2026-04-23T11:37:19.469Z</time></trkpt><trkpt lat="43.4414015" lon="0.5963806"><ele>236.33333333333334</ele><time>2026-04-23T11:37:22.469Z</time></trkpt><trkpt lat="43.4413852" lon="0.5964791"><ele>237.66666666666669</ele><time>2026-04-23T11:37:26.47Z</time></trkpt><trkpt lat="43.4413654" lon="0.5965778"><ele>239.0</ele><time>2026-04-23T11:37:29.469Z</time></trkpt><trkpt lat="43.4413476" lon="0.5966804"><ele>239.00000000000003</ele><time>2026-04-23T11:37:32.47Z</time></trkpt><trkpt lat="43.4413273" lon="0.5967761"><ele>239.0</ele><time>2026-04-23T11:37:35.469Z</time></trkpt><trkpt lat="43.4413166" lon="0.596886"><ele>239.00000000000003</ele><time>2026-04-23T11:37:39.469Z</time></trkpt><trkpt lat="43.441292" lon="0.5969678"><ele>239.00000000000003</ele><time>2026-04-23T11:37:42.469Z</time></trkpt><trkpt lat="43.4412542" lon="0.5970672"><ele>239.0</ele><time>2026-04-23T11:37:46.47Z</time></trkpt><trkpt lat="43.4412262" lon="0.5971493"><ele>239.00000000000003</ele><time>2026-04-23T11:37:49.469Z</time></trkpt><trkpt lat="43.441192" lon="0.5972501"><ele>239.00000000000003</ele><time>2026-04-23T11:37:53.469Z</time></trkpt><trkpt lat="43.4411628" lon="0.5973397"><ele>237.8571428571429</ele><time>2026-04-23T11:37:56.469Z</time></trkpt><trkpt lat="43.4411205" lon="0.5974384"><ele>236.71428571428572</ele><time>2026-04-23T11:38:00.469Z</time></trkpt><trkpt lat="43.4410821" lon="0.5975178"><ele>235.57142857142858</ele><time>2026-04-23T11:38:03.469Z</time></trkpt><trkpt lat="43.4410379" lon="0.5976105"><ele>234.42857142857144</ele><time>2026-04-23T11:38:07.469Z</time></trkpt><trkpt lat="43.4410087" lon="0.5977077"><ele>233.28571428571428</ele><time>2026-04-23T11:38:11.47Z</time></trkpt><trkpt lat="43.4410051" lon="0.5977968"><ele>232.14285714285714</ele><time>2026-04-23T11:38:14.469Z</time></trkpt><trkpt lat="43.4410237" lon="0.5978947"><ele>231.0</ele><time>2026-04-23T11:38:18.469Z</time></trkpt><trkpt lat="43.4410523" lon="0.5979812"><ele>231.0</ele><time>2026-04-23T11:38:21.469Z</time></trkpt><trkpt lat="43.4411004" lon="0.598054"><ele>231.0</ele><time>2026-04-23T11:38:24.469Z</time></trkpt><trkpt lat="43.4411349" lon="0.5981489"><ele>231.0</ele><time>2026-04-23T11:38:28.469Z</time></trkpt><trkpt lat="43.441172" lon="0.5982437"><ele>231.0</ele><time>2026-04-23T11:38:32.469Z</time></trkpt><trkpt lat="43.4412109" lon="0.5983409"><ele>231.0</ele><time>2026-04-23T11:38:36.469Z</time></trkpt><trkpt lat="43.4412338" lon="0.598425"><ele>231.0</ele><time>2026-04-23T11:38:39.469Z</time></trkpt><trkpt lat="43.441262" lon="0.5985128"><ele>231.0</ele><time>2026-04-23T11:38:42.47Z</time></trkpt><trkpt lat="43.441299" lon="0.5986056"><ele>233.0</ele><time>2026-04-23T11:38:46.469Z</time></trkpt><trkpt lat="43.4413318" lon="0.5986948"><ele>235.0</ele><time>2026-04-23T11:38:50.469Z</time></trkpt><trkpt lat="43.4413618" lon="0.5987862"><ele>237.0</ele><time>2026-04-23T11:38:54.47Z</time></trkpt><trkpt lat="43.4413893" lon="0.598891"><ele>239.0</ele><time>2026-04-23T11:38:58.469Z</time></trkpt><trkpt lat="43.4414061" lon="0.5989748"><ele>241.0</ele><time>2026-04-23T11:39:01.469Z</time></trkpt><trkpt lat="43.4414173" lon="0.5990621"><ele>243.0</ele><time>2026-04-23T11:39:04.469Z</time></trkpt><trkpt lat="43.4414336" lon="0.5991523"><ele>245.0</ele><time>2026-04-23T11:39:08.47Z</time></trkpt><trkpt lat="43.4414506" lon="0.5992391"><ele>245.00000000000003</ele><time>2026-04-23T11:39:11.469Z</time></trkpt><trkpt lat="43.4414823" lon="0.599341"><ele>245.0</ele><time>2026-04-23T11:39:15.469Z</time></trkpt><trkpt lat="43.4414906" lon="0.5994338"><ele>245.0</ele><time>2026-04-23T11:39:19.47Z</time></trkpt><trkpt lat="43.4414931" lon="0.5995515"><ele>245.0</ele><time>2026-04-23T11:39:23.469Z</time></trkpt><trkpt lat="43.4415056" lon="0.5996579"><ele>245.00000000000003</ele><time>2026-04-23T11:39:28.469Z</time></trkpt><trkpt lat="43.4415153" lon="0.5997575"><ele>245.0</ele><time>2026-04-23T11:39:32.469Z</time></trkpt><trkpt lat="43.4415101" lon="0.5998717"><ele>245.66666666666669</ele><time>2026-04-23T11:39:36.469Z</time></trkpt><trkpt lat="43.4414993" lon="0.599988"><ele>246.33333333333334</ele><time>2026-04-23T11:39:39.469Z</time></trkpt><trkpt lat="43.4414917" lon="0.6000914"><ele>247.0</ele><time>2026-04-23T11:39:43.469Z</time></trkpt><trkpt lat="43.4414934" lon="0.6001857"><ele>247.66666666666669</ele><time>2026-04-23T11:39:47.469Z</time></trkpt><trkpt lat="43.441482" lon="0.600295"><ele>248.33333333333334</ele><time>2026-04-23T11:39:51.469Z</time></trkpt><trkpt lat="43.4414685" lon="0.6003983"><ele>249.0</ele><time>2026-04-23T11:39:55.469Z</time></trkpt><trkpt lat="43.4414672" lon="0.6005015"><ele>250.85714285714283</ele><time>2026-04-23T11:39:59.469Z</time></trkpt><trkpt lat="43.4414567" lon="0.6006061"><ele>252.7142857142857</ele><time>2026-04-23T11:40:03.469Z</time></trkpt><trkpt lat="43.4414604" lon="0.6006979"><ele>254.57142857142856</ele><time>2026-04-23T11:40:07.469Z</time></trkpt><trkpt lat="43.4414436" lon="0.6007962"><ele>256.42857142857144</ele><time>2026-04-23T11:40:11.469Z</time></trkpt><trkpt lat="43.4414278" lon="0.6008953"><ele>258.28571428571433</ele><time>2026-04-23T11:40:15.469Z</time></trkpt><trkpt lat="43.4413943" lon="0.6009827"><ele>260.14285714285717</ele><time>2026-04-23T11:40:20.469Z</time></trkpt><trkpt lat="43.4413973" lon="0.6010968"><ele>262.0</ele><time>2026-04-23T11:40:24.469Z</time></trkpt><trkpt lat="43.4413927" lon="0.6011853"><ele>263.14285714285717</ele><time>2026-04-23T11:40:27.469Z</time></trkpt><trkpt lat="43.441394" lon="0.6012809"><ele>264.28571428571433</ele><time>2026-04-23T11:40:31.469Z</time></trkpt><trkpt lat="43.4414035" lon="0.601383"><ele>265.42857142857144</ele><time>2026-04-23T11:40:35.469Z</time></trkpt><trkpt lat="43.4413845" lon="0.6014718"><ele>266.57142857142856</ele><time>2026-04-23T11:40:39.469Z</time></trkpt><trkpt lat="43.4413722" lon="0.6015705"><ele>267.71428571428567</ele><time>2026-04-23T11:40:43.47Z</time></trkpt><trkpt lat="43.4413781" lon="0.6016856"><ele>268.85714285714283</ele><time>2026-04-23T11:40:47.469Z</time></trkpt><trkpt lat="43.4413705" lon="0.6017875"><ele>270.0</ele><time>2026-04-23T11:40:51.47Z</time></trkpt><trkpt lat="43.441368" lon="0.6018752"><ele>270.0</ele><time>2026-04-23T11:40:55.469Z</time></trkpt><trkpt lat="43.4413685" lon="0.6019726"><ele>270.0</ele><time>2026-04-23T11:40:59.469Z</time></trkpt><trkpt lat="43.4413487" lon="0.6020765"><ele>270.0</ele><time>2026-04-23T11:41:03.47Z</time></trkpt><trkpt lat="43.441277" lon="0.6021484"><ele>270.0</ele><time>2026-04-23T11:41:07.469Z</time></trkpt><trkpt lat="43.4411972" lon="0.6021858"><ele>270.0</ele><time>2026-04-23T11:41:10.47Z</time></trkpt><trkpt lat="43.4411174" lon="0.6021809"><ele>270.0</ele><time>2026-04-23T11:41:13.469Z</time></trkpt><trkpt lat="43.4410441" lon="0.6021749"><ele>269.85714285714283</ele><time>2026-04-23T11:41:16.469Z</time></trkpt><trkpt lat="43.4409808" lon="0.6021458"><ele>269.71428571428567</ele><time>2026-04-23T11:41:19.469Z</time></trkpt><trkpt lat="43.4409126" lon="0.6020832"><ele>269.57142857142856</ele><time>2026-04-23T11:41:23.469Z</time></trkpt><trkpt lat="43.4408675" lon="0.6020089"><ele>269.42857142857144</ele><time>2026-04-23T11:41:26.469Z</time></trkpt><trkpt lat="43.440827" lon="0.6019106"><ele>269.28571428571433</ele><time>2026-04-23T11:41:30.469Z</time></trkpt><trkpt lat="43.4407909" lon="0.6018341"><ele>269.14285714285717</ele><time>2026-04-23T11:41:33.469Z</time></trkpt><trkpt lat="43.4407667" lon="0.6017353"><ele>269.0</ele><time>2026-04-23T11:41:37.469Z</time></trkpt><trkpt lat="43.440741" lon="0.6016536"><ele>267.57142857142856</ele><time>2026-04-23T11:41:40.469Z</time></trkpt><trkpt lat="43.440717" lon="0.6015638"><ele>266.14285714285717</ele><time>2026-04-23T11:41:43.47Z</time></trkpt><trkpt lat="43.4406973" lon="0.6014695"><ele>264.7142857142857</ele><time>2026-04-23T11:41:46.469Z</time></trkpt><trkpt lat="43.4406769" lon="0.6013632"><ele>263.2857142857143</ele><time>2026-04-23T11:41:50.469Z</time></trkpt><trkpt lat="43.44066" lon="0.601254"><ele>261.8571428571429</ele><time>2026-04-23T11:41:53.469Z</time></trkpt><trkpt lat="43.4406343" lon="0.6011657"><ele>260.42857142857144</ele><time>2026-04-23T11:41:56.47Z</time></trkpt><trkpt lat="43.4405911" lon="0.6011001"><ele>259.0</ele><time>2026-04-23T11:41:59.469Z</time></trkpt><trkpt lat="43.4405355" lon="0.6011688"><ele>259.0</ele><time>2026-04-23T11:42:04.469Z</time></trkpt><trkpt lat="43.440547" lon="0.6012744"><ele>259.0</ele><time>2026-04-23T11:42:09.469Z</time></trkpt><trkpt lat="43.4405536" lon="0.6013846"><ele>259.0</ele><time>2026-04-23T11:42:13.469Z</time></trkpt><trkpt lat="43.4405588" lon="0.6014903"><ele>259.0</ele><time>2026-04-23T11:42:18.469Z</time></trkpt><trkpt lat="43.4405714" lon="0.6015899"><ele>259.0</ele><time>2026-04-23T11:42:24.469Z</time></trkpt><trkpt lat="43.4405633" lon="0.6016807"><ele>259.0</ele><time>2026-04-23T11:42:27.47Z</time></trkpt><trkpt lat="43.4405582" lon="0.6017885"><ele>259.0</ele><time>2026-04-23T11:42:31.469Z</time></trkpt><trkpt lat="43.4405474" lon="0.6018939"><ele>259.0</ele><time>2026-04-23T11:42:35.469Z</time></trkpt><trkpt lat="43.4405361" lon="0.6019855"><ele>259.0</ele><time>2026-04-23T11:42:39.469Z</time></trkpt><trkpt lat="43.4405251" lon="0.6020812"><ele>259.0</ele><time>2026-04-23T11:42:43.469Z</time></trkpt><trkpt lat="43.4405323" lon="0.6021684"><ele>259.0</ele><time>2026-04-23T11:42:46.469Z</time></trkpt><trkpt lat="43.4405377" lon="0.6022786"><ele>259.0</ele><time>2026-04-23T11:42:50.469Z</time></trkpt><trkpt lat="43.4405382" lon="0.6023686"><ele>259.0</ele><time>2026-04-23T11:42:53.469Z</time></trkpt><trkpt lat="43.440539" lon="0.6024875"><ele>260.42857142857144</ele><time>2026-04-23T11:42:57.469Z</time></trkpt><trkpt lat="43.4405411" lon="0.6025936"><ele>261.8571428571429</ele><time>2026-04-23T11:43:01.469Z</time></trkpt><trkpt lat="43.440558" lon="0.6026813"><ele>263.2857142857143</ele><time>2026-04-23T11:43:04.47Z</time></trkpt><trkpt lat="43.4405787" lon="0.6027823"><ele>264.7142857142857</ele><time>2026-04-23T11:43:09.469Z</time></trkpt><trkpt lat="43.4406082" lon="0.6028721"><ele>266.14285714285717</ele><time>2026-04-23T11:43:14.469Z</time></trkpt><trkpt lat="43.440622" lon="0.6029672"><ele>267.57142857142856</ele><time>2026-04-23T11:43:18.469Z</time></trkpt><trkpt lat="43.4406375" lon="0.6030605"><ele>269.0</ele><time>2026-04-23T11:43:21.469Z</time></trkpt><trkpt lat="43.440661" lon="0.6031693"><ele>270.8571428571429</ele><time>2026-04-23T11:43:25.47Z</time></trkpt><trkpt lat="43.4406731" lon="0.6032606"><ele>272.7142857142857</ele><time>2026-04-23T11:43:29.469Z</time></trkpt><trkpt lat="43.4406994" lon="0.6033472"><ele>274.57142857142856</ele><time>2026-04-23T11:43:33.469Z</time></trkpt><trkpt lat="43.4407418" lon="0.6034151"><ele>276.42857142857144</ele><time>2026-04-23T11:43:37.47Z</time></trkpt><trkpt lat="43.4407874" lon="0.6034899"><ele>278.2857142857143</ele><time>2026-04-23T11:43:41.469Z</time></trkpt><trkpt lat="43.4408625" lon="0.6035233"><ele>280.14285714285717</ele><time>2026-04-23T11:43:46.469Z</time></trkpt><trkpt lat="43.4409375" lon="0.6035338"><ele>282.0</ele><time>2026-04-23T11:43:50.469Z</time></trkpt><trkpt lat="43.441008" lon="0.6035432"><ele>282.0</ele><time>2026-04-23T11:43:54.469Z</time></trkpt><trkpt lat="43.4410853" lon="0.6035312"><ele>282.0</ele><time>2026-04-23T11:43:59.469Z</time></trkpt><trkpt lat="43.4411578" lon="0.6035765"><ele>282.0</ele><time>2026-04-23T11:44:03.469Z</time></trkpt><trkpt lat="43.4412253" lon="0.6035948"><ele>282.0</ele><time>2026-04-23T11:44:07.469Z</time></trkpt><trkpt lat="43.44128" lon="0.6036546"><ele>282.0</ele><time>2026-04-23T11:44:11.469Z</time></trkpt><trkpt lat="43.4413197" lon="0.6037343"><ele>282.0</ele><time>2026-04-23T11:44:14.469Z</time></trkpt><trkpt lat="43.4413655" lon="0.6038017"><ele>282.0</ele><time>2026-04-23T11:44:18.469Z</time></trkpt><trkpt lat="43.4413908" lon="0.6038838"><ele>283.7142857142857</ele><time>2026-04-23T11:44:22.469Z</time></trkpt><trkpt lat="43.4414169" lon="0.603969"><ele>285.42857142857144</ele><time>2026-04-23T11:44:25.469Z</time></trkpt><trkpt lat="43.4414432" lon="0.6040517"><ele>287.1428571428571</ele><time>2026-04-23T11:44:28.47Z</time></trkpt><trkpt lat="43.441454" lon="0.6041522"><ele>288.8571428571429</ele><time>2026-04-23T11:44:32.47Z</time></trkpt><trkpt lat="43.4414522" lon="0.6042458"><ele>290.57142857142856</ele><time>2026-04-23T11:44:36.469Z</time></trkpt><trkpt lat="43.4414545" lon="0.6043329"><ele>292.2857142857143</ele><time>2026-04-23T11:44:39.469Z</time></trkpt><trkpt lat="43.4414571" lon="0.6044218"><ele>294.0</ele><time>2026-04-23T11:44:42.469Z</time></trkpt><trkpt lat="43.4414711" lon="0.6045068"><ele>294.42857142857144</ele><time>2026-04-23T11:44:45.469Z</time></trkpt><trkpt lat="43.4415001" lon="0.6045938"><ele>294.8571428571429</ele><time>2026-04-23T11:44:48.469Z</time></trkpt><trkpt lat="43.4415225" lon="0.6046911"><ele>295.2857142857143</ele><time>2026-04-23T11:44:51.469Z</time></trkpt><trkpt lat="43.4415375" lon="0.6047807"><ele>295.7142857142857</ele><time>2026-04-23T11:44:54.469Z</time></trkpt><trkpt lat="43.4415542" lon="0.6048674"><ele>296.14285714285717</ele><time>2026-04-23T11:44:57.469Z</time></trkpt><trkpt lat="43.4415558" lon="0.6049654"><ele>296.57142857142856</ele><time>2026-04-23T11:45:00.469Z</time></trkpt><trkpt lat="43.441534" lon="0.6050506"><ele>297.0</ele><time>2026-04-23T11:45:03.469Z</time></trkpt><trkpt lat="43.4414869" lon="0.6051261"><ele>297.0</ele><time>2026-04-23T11:45:06.469Z</time></trkpt><trkpt lat="43.4414176" lon="0.6051889"><ele>297.0</ele><time>2026-04-23T11:45:09.469Z</time></trkpt><trkpt lat="43.4413517" lon="0.605258"><ele>297.0</ele><time>2026-04-23T11:45:12.469Z</time></trkpt><trkpt lat="43.4412922" lon="0.6053246"><ele>297.0</ele><time>2026-04-23T11:45:15.47Z</time></trkpt><trkpt lat="43.4412417" lon="0.6054002"><ele>297.0</ele><time>2026-04-23T11:45:18.469Z</time></trkpt><trkpt lat="43.4411961" lon="0.605474"><ele>297.0</ele><time>2026-04-23T11:45:21.469Z</time></trkpt><trkpt lat="43.4411548" lon="0.6055468"><ele>296.0</ele><time>2026-04-23T11:45:24.47Z</time></trkpt><trkpt lat="43.4411172" lon="0.6056175"><ele>295.0</ele><time>2026-04-23T11:45:27.469Z</time></trkpt><trkpt lat="43.4410753" lon="0.6056966"><ele>294.0</ele><time>2026-04-23T11:45:30.469Z</time></trkpt><trkpt lat="43.4410431" lon="0.6057731"><ele>293.0</ele><time>2026-04-23T11:45:33.47Z</time></trkpt><trkpt lat="43.4410094" lon="0.6058472"><ele>292.0</ele><time>2026-04-23T11:45:36.47Z</time></trkpt><trkpt lat="43.4409734" lon="0.605952"><ele>291.0</ele><time>2026-04-23T11:45:40.47Z</time></trkpt><trkpt lat="43.4409507" lon="0.6060342"><ele>290.0</ele><time>2026-04-23T11:45:43.469Z</time></trkpt><trkpt lat="43.4409309" lon="0.6061255"><ele>290.7142857142857</ele><time>2026-04-23T11:45:46.47Z</time></trkpt><trkpt lat="43.4409197" lon="0.6062156"><ele>291.42857142857144</ele><time>2026-04-23T11:45:49.469Z</time></trkpt><trkpt lat="43.4409115" lon="0.60631"><ele>292.14285714285717</ele><time>2026-04-23T11:45:52.47Z</time></trkpt><trkpt lat="43.4408997" lon="0.6064049"><ele>292.8571428571429</ele><time>2026-04-23T11:45:55.469Z</time></trkpt><trkpt lat="43.4408902" lon="0.606503"><ele>293.57142857142856</ele><time>2026-04-23T11:45:58.47Z</time></trkpt><trkpt lat="43.440884" lon="0.6065996"><ele>294.28571428571433</ele><time>2026-04-23T11:46:01.469Z</time></trkpt><trkpt lat="43.4408768" lon="0.6067034"><ele>295.0</ele><time>2026-04-23T11:46:04.469Z</time></trkpt><trkpt lat="43.4408669" lon="0.6067985"><ele>295.00000000000006</ele><time>2026-04-23T11:46:07.47Z</time></trkpt><trkpt lat="43.4408598" lon="0.6068929"><ele>295.0</ele><time>2026-04-23T11:46:10.469Z</time></trkpt><trkpt lat="43.4408535" lon="0.6069879"><ele>295.0</ele><time>2026-04-23T11:46:13.469Z</time></trkpt><trkpt lat="43.4408437" lon="0.607084"><ele>295.0</ele><time>2026-04-23T11:46:16.469Z</time></trkpt><trkpt lat="43.4408239" lon="0.6071791"><ele>295.0</ele><time>2026-04-23T11:46:19.469Z</time></trkpt><trkpt lat="43.440808" lon="0.6072978"><ele>295.00000000000006</ele><time>2026-04-23T11:46:23.469Z</time></trkpt><trkpt lat="43.4407979" lon="0.6073945"><ele>295.0</ele><time>2026-04-23T11:46:26.47Z</time></trkpt><trkpt lat="43.4407881" lon="0.607484"><ele>294.8333333333333</ele><time>2026-04-23T11:46:29.47Z</time></trkpt><trkpt lat="43.4407651" lon="0.6075856"><ele>294.66666666666663</ele><time>2026-04-23T11:46:32.469Z</time></trkpt><trkpt lat="43.4407513" lon="0.60769"><ele>294.5</ele><time>2026-04-23T11:46:35.469Z</time></trkpt><trkpt lat="43.4407354" lon="0.6077936"><ele>294.3333333333333</ele><time>2026-04-23T11:46:38.469Z</time></trkpt><trkpt lat="43.4407113" lon="0.6078917"><ele>294.1666666666667</ele><time>2026-04-23T11:46:41.47Z</time></trkpt><trkpt lat="43.4406855" lon="0.6079845"><ele>294.0</ele><time>2026-04-23T11:46:44.469Z</time></trkpt><trkpt lat="43.4406651" lon="0.6080791"><ele>293.6666666666667</ele><time>2026-04-23T11:46:47.469Z</time></trkpt><trkpt lat="43.4406414" lon="0.6081801"><ele>293.3333333333333</ele><time>2026-04-23T11:46:50.469Z</time></trkpt><trkpt lat="43.4406136" lon="0.6082688"><ele>293.0</ele><time>2026-04-23T11:46:53.469Z</time></trkpt><trkpt lat="43.4405865" lon="0.6083657"><ele>292.66666666666663</ele><time>2026-04-23T11:46:56.47Z</time></trkpt><trkpt lat="43.4405588" lon="0.6084657"><ele>292.3333333333333</ele><time>2026-04-23T11:46:59.47Z</time></trkpt><trkpt lat="43.4405234" lon="0.6085553"><ele>292.0</ele><time>2026-04-23T11:47:02.469Z</time></trkpt><trkpt lat="43.4404723" lon="0.6086391"><ele>292.66666666666663</ele><time>2026-04-23T11:47:05.469Z</time></trkpt><trkpt lat="43.4404165" lon="0.6087107"><ele>293.3333333333333</ele><time>2026-04-23T11:47:08.469Z</time></trkpt><trkpt lat="43.4403485" lon="0.6087722"><ele>294.0</ele><time>2026-04-23T11:47:11.47Z</time></trkpt><trkpt lat="43.4402672" lon="0.608814"><ele>294.6666666666667</ele><time>2026-04-23T11:47:14.469Z</time></trkpt><trkpt lat="43.4401884" lon="0.6088238"><ele>295.33333333333337</ele><time>2026-04-23T11:47:17.469Z</time></trkpt><trkpt lat="43.4401011" lon="0.6088401"><ele>296.0</ele><time>2026-04-23T11:47:21.47Z</time></trkpt><trkpt lat="43.4400351" lon="0.6088441"><ele>296.0</ele><time>2026-04-23T11:47:24.469Z</time></trkpt><trkpt lat="43.4399653" lon="0.6088306"><ele>296.0</ele><time>2026-04-23T11:47:28.469Z</time></trkpt><trkpt lat="43.4398879" lon="0.6088053"><ele>296.0</ele><time>2026-04-23T11:47:31.47Z</time></trkpt><trkpt lat="43.4397986" lon="0.6087715"><ele>296.0</ele><time>2026-04-23T11:47:34.469Z</time></trkpt><trkpt lat="43.4397188" lon="0.6087485"><ele>296.0</ele><time>2026-04-23T11:47:37.469Z</time></trkpt><trkpt lat="43.4396421" lon="0.6087197"><ele>296.0</ele><time>2026-04-23T11:47:40.469Z</time></trkpt><trkpt lat="43.4395662" lon="0.6086775"><ele>294.8571428571429</ele><time>2026-04-23T11:47:43.469Z</time></trkpt><trkpt lat="43.4394945" lon="0.6086465"><ele>293.7142857142857</ele><time>2026-04-23T11:47:46.469Z</time></trkpt><trkpt lat="43.4394217" lon="0.6086"><ele>292.57142857142856</ele><time>2026-04-23T11:47:49.469Z</time></trkpt><trkpt lat="43.4393519" lon="0.608553"><ele>291.42857142857144</ele><time>2026-04-23T11:47:52.469Z</time></trkpt><trkpt lat="43.4392899" lon="0.608511"><ele>290.2857142857143</ele><time>2026-04-23T11:47:55.469Z</time></trkpt><trkpt lat="43.4392315" lon="0.6084602"><ele>289.14285714285717</ele><time>2026-04-23T11:47:58.469Z</time></trkpt><trkpt lat="43.4391665" lon="0.6084227"><ele>288.0</ele><time>2026-04-23T11:48:02.469Z</time></trkpt><trkpt lat="43.4391151" lon="0.6083723"><ele>288.00000000000006</ele><time>2026-04-23T11:48:09.469Z</time></trkpt><trkpt lat="43.4390803" lon="0.6082662"><ele>288.0</ele><time>2026-04-23T11:50:12.457Z</time></trkpt><trkpt lat="43.4390147" lon="0.6082539"><ele>288.0</ele><time>2026-04-23T11:50:15.456Z</time></trkpt><trkpt lat="43.4389495" lon="0.6082427"><ele>288.0</ele><time>2026-04-23T11:50:18.457Z</time></trkpt><trkpt lat="43.4388787" lon="0.6082091"><ele>288.0</ele><time>2026-04-23T11:50:21.456Z</time></trkpt><trkpt lat="43.4388092" lon="0.6081677"><ele>288.00000000000006</ele><time>2026-04-23T11:50:25.456Z</time></trkpt><trkpt lat="43.438751" lon="0.6081099"><ele>288.0</ele><time>2026-04-23T11:50:28.456Z</time></trkpt><trkpt lat="43.4386876" lon="0.6080724"><ele>287.8571428571429</ele><time>2026-04-23T11:50:31.456Z</time></trkpt><trkpt lat="43.4386297" lon="0.6080244"><ele>287.7142857142857</ele><time>2026-04-23T11:50:34.456Z</time></trkpt><trkpt lat="43.4385754" lon="0.6079784"><ele>287.57142857142856</ele><time>2026-04-23T11:50:37.457Z</time></trkpt><trkpt lat="43.4385104" lon="0.6079248"><ele>287.42857142857144</ele><time>2026-04-23T11:50:40.456Z</time></trkpt><trkpt lat="43.438445" lon="0.6078747"><ele>287.2857142857143</ele><time>2026-04-23T11:50:43.456Z</time></trkpt><trkpt lat="43.4383758" lon="0.6078219"><ele>287.14285714285717</ele><time>2026-04-23T11:50:46.456Z</time></trkpt><trkpt lat="43.4383074" lon="0.6077865"><ele>287.0</ele><time>2026-04-23T11:50:49.456Z</time></trkpt><trkpt lat="43.4382401" lon="0.607748"><ele>287.2857142857143</ele><time>2026-04-23T11:50:52.456Z</time></trkpt><trkpt lat="43.4381715" lon="0.6077182"><ele>287.57142857142856</ele><time>2026-04-23T11:50:55.456Z</time></trkpt><trkpt lat="43.4381036" lon="0.6076845"><ele>287.8571428571429</ele><time>2026-04-23T11:50:58.456Z</time></trkpt><trkpt lat="43.4380383" lon="0.6076521"><ele>288.1428571428571</ele><time>2026-04-23T11:51:01.457Z</time></trkpt><trkpt lat="43.4379738" lon="0.6076093"><ele>288.42857142857144</ele><time>2026-04-23T11:51:04.456Z</time></trkpt><trkpt lat="43.437917" lon="0.6075565"><ele>288.7142857142857</ele><time>2026-04-23T11:51:07.456Z</time></trkpt><trkpt lat="43.4378623" lon="0.6074911"><ele>289.0</ele><time>2026-04-23T11:51:10.456Z</time></trkpt><trkpt lat="43.4378049" lon="0.6074252"><ele>289.0</ele><time>2026-04-23T11:51:13.456Z</time></trkpt><trkpt lat="43.4377496" lon="0.6073479"><ele>289.0</ele><time>2026-04-23T11:51:16.456Z</time></trkpt><trkpt lat="43.4376962" lon="0.6072748"><ele>289.0</ele><time>2026-04-23T11:51:19.456Z</time></trkpt><trkpt lat="43.4376452" lon="0.607203"><ele>289.0</ele><time>2026-04-23T11:51:22.456Z</time></trkpt><trkpt lat="43.4375971" lon="0.6071217"><ele>289.0</ele><time>2026-04-23T11:51:25.456Z</time></trkpt><trkpt lat="43.4375462" lon="0.6070245"><ele>289.0</ele><time>2026-04-23T11:51:29.456Z</time></trkpt><trkpt lat="43.437506" lon="0.606956"><ele>289.2857142857143</ele><time>2026-04-23T11:51:32.456Z</time></trkpt><trkpt lat="43.4374603" lon="0.6068792"><ele>289.57142857142856</ele><time>2026-04-23T11:51:35.456Z</time></trkpt><trkpt lat="43.4374092" lon="0.6068001"><ele>289.85714285714283</ele><time>2026-04-23T11:51:38.456Z</time></trkpt><trkpt lat="43.4373668" lon="0.6067179"><ele>290.1428571428571</ele><time>2026-04-23T11:51:41.456Z</time></trkpt><trkpt lat="43.4373127" lon="0.6066429"><ele>290.4285714285714</ele><time>2026-04-23T11:51:44.456Z</time></trkpt><trkpt lat="43.4372577" lon="0.6065723"><ele>290.7142857142857</ele><time>2026-04-23T11:51:47.457Z</time></trkpt><trkpt lat="43.4372022" lon="0.6065078"><ele>291.0</ele><time>2026-04-23T11:51:50.457Z</time></trkpt><trkpt lat="43.4371458" lon="0.6064459"><ele>290.5</ele><time>2026-04-23T11:51:53.456Z</time></trkpt><trkpt lat="43.4370869" lon="0.6063841"><ele>290.0</ele><time>2026-04-23T11:51:56.456Z</time></trkpt><trkpt lat="43.4370236" lon="0.60633"><ele>289.5</ele><time>2026-04-23T11:51:59.456Z</time></trkpt><trkpt lat="43.4369556" lon="0.6062841"><ele>289.0</ele><time>2026-04-23T11:52:02.456Z</time></trkpt><trkpt lat="43.4368801" lon="0.6062385"><ele>288.5</ele><time>2026-04-23T11:52:05.456Z</time></trkpt><trkpt lat="43.4368078" lon="0.6062074"><ele>288.0</ele><time>2026-04-23T11:52:08.456Z</time></trkpt><trkpt lat="43.4367348" lon="0.6061828"><ele>288.0</ele><time>2026-04-23T11:52:11.456Z</time></trkpt><trkpt lat="43.4366594" lon="0.6061729"><ele>288.0</ele><time>2026-04-23T11:52:14.456Z</time></trkpt><trkpt lat="43.4365792" lon="0.6061729"><ele>288.0</ele><time>2026-04-23T11:52:17.456Z</time></trkpt><trkpt lat="43.4365017" lon="0.6061799"><ele>288.0</ele><time>2026-04-23T11:52:20.456Z</time></trkpt><trkpt lat="43.4364263" lon="0.6061976"><ele>288.0</ele><time>2026-04-23T11:52:23.456Z</time></trkpt><trkpt lat="43.4363502" lon="0.606211"><ele>288.0</ele><time>2026-04-23T11:52:26.456Z</time></trkpt><trkpt lat="43.436278" lon="0.6062334"><ele>288.28571428571433</ele><time>2026-04-23T11:52:29.456Z</time></trkpt><trkpt lat="43.4362051" lon="0.6062541"><ele>288.57142857142856</ele><time>2026-04-23T11:52:32.456Z</time></trkpt><trkpt lat="43.4361327" lon="0.6062757"><ele>288.8571428571429</ele><time>2026-04-23T11:52:35.456Z</time></trkpt><trkpt lat="43.4360601" lon="0.6062918"><ele>289.14285714285717</ele><time>2026-04-23T11:52:38.456Z</time></trkpt><trkpt lat="43.4359885" lon="0.6063085"><ele>289.42857142857144</ele><time>2026-04-23T11:52:41.456Z</time></trkpt><trkpt lat="43.4359165" lon="0.6063303"><ele>289.7142857142857</ele><time>2026-04-23T11:52:44.456Z</time></trkpt><trkpt lat="43.435844" lon="0.6063585"><ele>290.0</ele><time>2026-04-23T11:52:47.457Z</time></trkpt><trkpt lat="43.4357703" lon="0.606385"><ele>290.0</ele><time>2026-04-23T11:52:50.456Z</time></trkpt><trkpt lat="43.4356928" lon="0.6064126"><ele>290.0</ele><time>2026-04-23T11:52:53.456Z</time></trkpt><trkpt lat="43.4356236" lon="0.6064334"><ele>290.0</ele><time>2026-04-23T11:52:56.456Z</time></trkpt><trkpt lat="43.4355505" lon="0.6064519"><ele>290.0</ele><time>2026-04-23T11:52:59.457Z</time></trkpt><trkpt lat="43.435477" lon="0.6064727"><ele>290.0</ele><time>2026-04-23T11:53:02.456Z</time></trkpt><trkpt lat="43.4354029" lon="0.6064873"><ele>290.0</ele><time>2026-04-23T11:53:05.456Z</time></trkpt><trkpt lat="43.4353293" lon="0.6065096"><ele>290.2857142857143</ele><time>2026-04-23T11:53:08.456Z</time></trkpt><trkpt lat="43.4352545" lon="0.6065313"><ele>290.5714285714286</ele><time>2026-04-23T11:53:11.456Z</time></trkpt><trkpt lat="43.4351813" lon="0.6065462"><ele>290.8571428571429</ele><time>2026-04-23T11:53:14.456Z</time></trkpt><trkpt lat="43.4351085" lon="0.6065645"><ele>291.14285714285717</ele><time>2026-04-23T11:53:17.456Z</time></trkpt><trkpt lat="43.4350368" lon="0.6065799"><ele>291.42857142857144</ele><time>2026-04-23T11:53:20.457Z</time></trkpt><trkpt lat="43.4349612" lon="0.6065994"><ele>291.7142857142857</ele><time>2026-04-23T11:53:23.457Z</time></trkpt><trkpt lat="43.4348898" lon="0.6066148"><ele>292.0</ele><time>2026-04-23T11:53:26.456Z</time></trkpt><trkpt lat="43.4348159" lon="0.6066328"><ele>292.0</ele><time>2026-04-23T11:53:29.456Z</time></trkpt><trkpt lat="43.4347337" lon="0.6066543"><ele>292.0</ele><time>2026-04-23T11:53:32.456Z</time></trkpt><trkpt lat="43.4346573" lon="0.6066615"><ele>292.0</ele><time>2026-04-23T11:53:35.456Z</time></trkpt><trkpt lat="43.4345907" lon="0.6066758"><ele>292.0</ele><time>2026-04-23T11:53:38.456Z</time></trkpt><trkpt lat="43.4345118" lon="0.6066897"><ele>292.0</ele><time>2026-04-23T11:53:41.457Z</time></trkpt><trkpt lat="43.434441" lon="0.606696"><ele>292.0</ele><time>2026-04-23T11:53:44.456Z</time></trkpt><trkpt lat="43.4343628" lon="0.6067037"><ele>291.16666666666663</ele><time>2026-04-23T11:53:47.456Z</time></trkpt><trkpt lat="43.4342893" lon="0.6067261"><ele>290.3333333333333</ele><time>2026-04-23T11:53:50.456Z</time></trkpt><trkpt lat="43.4342249" lon="0.6067614"><ele>289.5</ele><time>2026-04-23T11:53:53.457Z</time></trkpt><trkpt lat="43.4341669" lon="0.6067966"><ele>288.6666666666667</ele><time>2026-04-23T11:53:55.456Z</time></trkpt><trkpt lat="43.4340855" lon="0.6068329"><ele>287.83333333333337</ele><time>2026-04-23T11:53:58.456Z</time></trkpt><trkpt lat="43.4340116" lon="0.6068418"><ele>287.0</ele><time>2026-04-23T11:54:01.456Z</time></trkpt><trkpt lat="43.4339287" lon="0.6068575"><ele>287.0</ele><time>2026-04-23T11:54:04.456Z</time></trkpt><trkpt lat="43.4338494" lon="0.6068705"><ele>287.0</ele><time>2026-04-23T11:54:07.456Z</time></trkpt><trkpt lat="43.4337723" lon="0.6068637"><ele>287.0</ele><time>2026-04-23T11:54:10.457Z</time></trkpt><trkpt lat="43.4336864" lon="0.6068515"><ele>287.0</ele><time>2026-04-23T11:54:13.456Z</time></trkpt><trkpt lat="43.4336084" lon="0.6068168"><ele>287.0</ele><time>2026-04-23T11:54:16.457Z</time></trkpt><trkpt lat="43.4335228" lon="0.6068008"><ele>287.0</ele><time>2026-04-23T11:54:19.456Z</time></trkpt><trkpt lat="43.4334383" lon="0.6067783"><ele>286.83333333333337</ele><time>2026-04-23T11:54:22.457Z</time></trkpt><trkpt lat="43.4333641" lon="0.6067493"><ele>286.6666666666667</ele><time>2026-04-23T11:54:25.456Z</time></trkpt><trkpt lat="43.4332864" lon="0.606729"><ele>286.5</ele><time>2026-04-23T11:54:28.456Z</time></trkpt><trkpt lat="43.4332117" lon="0.6066909"><ele>286.3333333333333</ele><time>2026-04-23T11:54:31.457Z</time></trkpt><trkpt lat="43.4331418" lon="0.6066474"><ele>286.16666666666663</ele><time>2026-04-23T11:54:34.457Z</time></trkpt><trkpt lat="43.4330681" lon="0.6066058"><ele>286.0</ele><time>2026-04-23T11:54:37.456Z</time></trkpt><trkpt lat="43.4329867" lon="0.6065674"><ele>286.0</ele><time>2026-04-23T11:54:40.456Z</time></trkpt><trkpt lat="43.4329109" lon="0.60655"><ele>286.0</ele><time>2026-04-23T11:54:43.456Z</time></trkpt><trkpt lat="43.4328386" lon="0.6065133"><ele>286.0</ele><time>2026-04-23T11:54:46.456Z</time></trkpt><trkpt lat="43.4327647" lon="0.6064697"><ele>286.0</ele><time>2026-04-23T11:54:49.456Z</time></trkpt><trkpt lat="43.4326953" lon="0.6064386"><ele>286.0</ele><time>2026-04-23T11:54:52.456Z</time></trkpt><trkpt lat="43.432624" lon="0.6064059"><ele>286.0</ele><time>2026-04-23T11:54:55.457Z</time></trkpt><trkpt lat="43.4325588" lon="0.6063754"><ele>286.0</ele><time>2026-04-23T11:54:58.456Z</time></trkpt><trkpt lat="43.4324794" lon="0.6063507"><ele>286.0</ele><time>2026-04-23T11:55:01.456Z</time></trkpt><trkpt lat="43.4324079" lon="0.6063367"><ele>286.0</ele><time>2026-04-23T11:55:04.456Z</time></trkpt><trkpt lat="43.432336" lon="0.6063098"><ele>286.0</ele><time>2026-04-23T11:55:07.456Z</time></trkpt><trkpt lat="43.4322663" lon="0.6062713"><ele>286.0</ele><time>2026-04-23T11:55:10.456Z</time></trkpt><trkpt lat="43.4321928" lon="0.6062384"><ele>286.0</ele><time>2026-04-23T11:55:13.456Z</time></trkpt><trkpt lat="43.4321251" lon="0.6062055"><ele>287.0</ele><time>2026-04-23T11:55:16.456Z</time></trkpt><trkpt lat="43.4320543" lon="0.606179"><ele>288.0</ele><time>2026-04-23T11:55:19.456Z</time></trkpt><trkpt lat="43.4319863" lon="0.6061502"><ele>289.0</ele><time>2026-04-23T11:55:22.456Z</time></trkpt><trkpt lat="43.4319208" lon="0.6061022"><ele>290.0</ele><time>2026-04-23T11:55:25.456Z</time></trkpt><trkpt lat="43.431862" lon="0.6060541"><ele>291.0</ele><time>2026-04-23T11:55:28.457Z</time></trkpt><trkpt lat="43.431854" lon="0.6059449"><ele>292.0</ele><time>2026-04-23T11:55:31.456Z</time></trkpt><trkpt lat="43.4318841" lon="0.6058264"><ele>292.0</ele><time>2026-04-23T11:55:34.456Z</time></trkpt><trkpt lat="43.4319011" lon="0.605715"><ele>292.0</ele><time>2026-04-23T11:55:37.456Z</time></trkpt><trkpt lat="43.4319302" lon="0.6056211"><ele>292.0</ele><time>2026-04-23T11:55:39.456Z</time></trkpt><trkpt lat="43.4319534" lon="0.60552"><ele>292.0</ele><time>2026-04-23T11:55:42.456Z</time></trkpt><trkpt lat="43.4319721" lon="0.605416"><ele>292.0</ele><time>2026-04-23T11:55:46.456Z</time></trkpt><trkpt lat="43.4319898" lon="0.6053094"><ele>292.0</ele><time>2026-04-23T11:55:49.456Z</time></trkpt><trkpt lat="43.4320154" lon="0.6052019"><ele>291.3333333333333</ele><time>2026-04-23T11:55:52.456Z</time></trkpt><trkpt lat="43.4320175" lon="0.6050862"><ele>290.66666666666663</ele><time>2026-04-23T11:55:55.456Z</time></trkpt><trkpt lat="43.4320187" lon="0.6049778"><ele>290.0</ele><time>2026-04-23T11:55:58.456Z</time></trkpt><trkpt lat="43.4320078" lon="0.6048642"><ele>289.3333333333333</ele><time>2026-04-23T11:56:01.457Z</time></trkpt><trkpt lat="43.432027" lon="0.6047637"><ele>288.6666666666667</ele><time>2026-04-23T11:56:04.456Z</time></trkpt><trkpt lat="43.4320344" lon="0.6046277"><ele>288.0</ele><time>2026-04-23T11:56:08.457Z</time></trkpt><trkpt lat="43.4320539" lon="0.6045237"><ele>288.0</ele><time>2026-04-23T11:56:11.456Z</time></trkpt><trkpt lat="43.4320903" lon="0.604424"><ele>288.0</ele><time>2026-04-23T11:56:14.456Z</time></trkpt><trkpt lat="43.4321095" lon="0.6043119"><ele>288.0</ele><time>2026-04-23T11:56:17.456Z</time></trkpt><trkpt lat="43.4321246" lon="0.6041988"><ele>288.0</ele><time>2026-04-23T11:56:20.456Z</time></trkpt><trkpt lat="43.4321355" lon="0.6040939"><ele>288.0</ele><time>2026-04-23T11:56:23.456Z</time></trkpt><trkpt lat="43.432167" lon="0.6039915"><ele>288.0</ele><time>2026-04-23T11:56:26.457Z</time></trkpt><trkpt lat="43.4322065" lon="0.603885"><ele>288.0</ele><time>2026-04-23T11:56:29.457Z</time></trkpt><trkpt lat="43.4322547" lon="0.6037853"><ele>288.0</ele><time>2026-04-23T11:56:32.456Z</time></trkpt><trkpt lat="43.4322736" lon="0.6036961"><ele>288.0</ele><time>2026-04-23T11:56:34.456Z</time></trkpt><trkpt lat="43.432291" lon="0.6035732"><ele>288.0</ele><time>2026-04-23T11:56:37.457Z</time></trkpt><trkpt lat="43.4322994" lon="0.603453"><ele>288.0</ele><time>2026-04-23T11:56:40.456Z</time></trkpt><trkpt lat="43.4323285" lon="0.6033414"><ele>288.0</ele><time>2026-04-23T11:56:43.456Z</time></trkpt><trkpt lat="43.432342" lon="0.6032177"><ele>287.0</ele><time>2026-04-23T11:56:46.456Z</time></trkpt><trkpt lat="43.4323576" lon="0.6031314"><ele>286.0</ele><time>2026-04-23T11:56:48.456Z</time></trkpt><trkpt lat="43.4323854" lon="0.6030373"><ele>285.0</ele><time>2026-04-23T11:56:50.456Z</time></trkpt><trkpt lat="43.4324092" lon="0.6029385"><ele>284.0</ele><time>2026-04-23T11:56:52.456Z</time></trkpt><trkpt lat="43.4324587" lon="0.6028457"><ele>283.0</ele><time>2026-04-23T11:56:55.456Z</time></trkpt><trkpt lat="43.4325131" lon="0.602751"><ele>282.0</ele><time>2026-04-23T11:56:58.456Z</time></trkpt><trkpt lat="43.4325806" lon="0.602668"><ele>280.1666666666667</ele><time>2026-04-23T11:57:01.457Z</time></trkpt><trkpt lat="43.4326201" lon="0.6025623"><ele>278.3333333333333</ele><time>2026-04-23T11:57:04.456Z</time></trkpt><trkpt lat="43.4326572" lon="0.6024639"><ele>276.5</ele><time>2026-04-23T11:57:07.456Z</time></trkpt><trkpt lat="43.4326977" lon="0.6023664"><ele>274.66666666666663</ele><time>2026-04-23T11:57:10.456Z</time></trkpt><trkpt lat="43.4327258" lon="0.6022659"><ele>272.8333333333333</ele><time>2026-04-23T11:57:13.457Z</time></trkpt><trkpt lat="43.4327396" lon="0.6021548"><ele>271.0</ele><time>2026-04-23T11:57:16.456Z</time></trkpt><trkpt lat="43.4327406" lon="0.6020535"><ele>269.3333333333333</ele><time>2026-04-23T11:57:19.456Z</time></trkpt><trkpt lat="43.4327516" lon="0.6019677"><ele>267.66666666666663</ele><time>2026-04-23T11:57:21.456Z</time></trkpt><trkpt lat="43.432768" lon="0.6018586"><ele>266.0</ele><time>2026-04-23T11:57:24.456Z</time></trkpt><trkpt lat="43.432779" lon="0.6017586"><ele>264.3333333333333</ele><time>2026-04-23T11:57:27.456Z</time></trkpt><trkpt lat="43.4327671" lon="0.6016457"><ele>262.6666666666667</ele><time>2026-04-23T11:57:30.456Z</time></trkpt><trkpt lat="43.4327743" lon="0.601523"><ele>261.0</ele><time>2026-04-23T11:57:33.456Z</time></trkpt><trkpt lat="43.4328042" lon="0.6013973"><ele>261.0</ele><time>2026-04-23T11:57:36.456Z</time></trkpt><trkpt lat="43.4328224" lon="0.6013094"><ele>261.0</ele><time>2026-04-23T11:57:38.456Z</time></trkpt><trkpt lat="43.4328452" lon="0.6011973"><ele>261.0</ele><time>2026-04-23T11:57:41.456Z</time></trkpt><trkpt lat="43.4328595" lon="0.601091"><ele>261.0</ele><time>2026-04-23T11:57:44.456Z</time></trkpt><trkpt lat="43.4328867" lon="0.6009774"><ele>261.0</ele><time>2026-04-23T11:57:47.456Z</time></trkpt><trkpt lat="43.4329114" lon="0.6008621"><ele>261.0</ele><time>2026-04-23T11:57:50.456Z</time></trkpt><trkpt lat="43.4329321" lon="0.6007797"><ele>259.6666666666667</ele><time>2026-04-23T11:57:52.457Z</time></trkpt><trkpt lat="43.4329421" lon="0.6006931"><ele>258.3333333333333</ele><time>2026-04-23T11:57:54.456Z</time></trkpt><trkpt lat="43.4329457" lon="0.600584"><ele>257.0</ele><time>2026-04-23T11:57:57.456Z</time></trkpt><trkpt lat="43.4329546" lon="0.60047"><ele>255.66666666666666</ele><time>2026-04-23T11:58:00.457Z</time></trkpt><trkpt lat="43.4329504" lon="0.6003535"><ele>254.33333333333331</ele><time>2026-04-23T11:58:03.456Z</time></trkpt><trkpt lat="43.4329351" lon="0.6002432"><ele>253.0</ele><time>2026-04-23T11:58:06.456Z</time></trkpt><trkpt lat="43.4329102" lon="0.6001429"><ele>252.16666666666666</ele><time>2026-04-23T11:58:09.456Z</time></trkpt><trkpt lat="43.4328974" lon="0.6000547"><ele>251.33333333333331</ele><time>2026-04-23T11:58:11.456Z</time></trkpt><trkpt lat="43.4328832" lon="0.5999678"><ele>250.5</ele><time>2026-04-23T11:58:13.456Z</time></trkpt><trkpt lat="43.4328713" lon="0.5998568"><ele>249.66666666666669</ele><time>2026-04-23T11:58:16.456Z</time></trkpt><trkpt lat="43.4328547" lon="0.5997396"><ele>248.83333333333334</ele><time>2026-04-23T11:58:19.456Z</time></trkpt><trkpt lat="43.4328428" lon="0.5996226"><ele>248.0</ele><time>2026-04-23T11:58:22.456Z</time></trkpt><trkpt lat="43.4328283" lon="0.599522"><ele>247.83333333333334</ele><time>2026-04-23T11:58:25.456Z</time></trkpt><trkpt lat="43.4328125" lon="0.5994083"><ele>247.66666666666669</ele><time>2026-04-23T11:58:28.456Z</time></trkpt><trkpt lat="43.4327754" lon="0.5992958"><ele>247.5</ele><time>2026-04-23T11:58:31.456Z</time></trkpt><trkpt lat="43.4327527" lon="0.5991903"><ele>247.33333333333331</ele><time>2026-04-23T11:58:34.456Z</time></trkpt><trkpt lat="43.4327471" lon="0.5990789"><ele>247.16666666666666</ele><time>2026-04-23T11:58:37.456Z</time></trkpt><trkpt lat="43.4327385" lon="0.5989534"><ele>247.0</ele><time>2026-04-23T11:58:40.456Z</time></trkpt><trkpt lat="43.4327193" lon="0.5988325"><ele>246.99999999999997</ele><time>2026-04-23T11:58:43.456Z</time></trkpt><trkpt lat="43.4327071" lon="0.5987472"><ele>247.0</ele><time>2026-04-23T11:58:45.456Z</time></trkpt><trkpt lat="43.4327012" lon="0.5986293"><ele>247.0</ele><time>2026-04-23T11:58:48.456Z</time></trkpt><trkpt lat="43.4326986" lon="0.5985408"><ele>247.0</ele><time>2026-04-23T11:58:50.456Z</time></trkpt><trkpt lat="43.4326897" lon="0.5984172"><ele>246.99999999999997</ele><time>2026-04-23T11:58:53.456Z</time></trkpt><trkpt lat="43.4326802" lon="0.5983289"><ele>247.0</ele><time>2026-04-23T11:58:55.457Z</time></trkpt><trkpt lat="43.4326704" lon="0.598217"><ele>246.16666666666666</ele><time>2026-04-23T11:58:58.456Z</time></trkpt><trkpt lat="43.4326637" lon="0.5981252"><ele>245.33333333333331</ele><time>2026-04-23T11:59:00.456Z</time></trkpt><trkpt lat="43.4326428" lon="0.598005"><ele>244.5</ele><time>2026-04-23T11:59:03.456Z</time></trkpt><trkpt lat="43.4326232" lon="0.5979167"><ele>243.66666666666669</ele><time>2026-04-23T11:59:05.456Z</time></trkpt><trkpt lat="43.4326087" lon="0.5977988"><ele>242.83333333333334</ele><time>2026-04-23T11:59:08.457Z</time></trkpt><trkpt lat="43.4325961" lon="0.5977129"><ele>242.0</ele><time>2026-04-23T11:59:10.456Z</time></trkpt><trkpt lat="43.4325734" lon="0.5975934"><ele>241.83333333333334</ele><time>2026-04-23T11:59:13.456Z</time></trkpt><trkpt lat="43.4325424" lon="0.5974748"><ele>241.66666666666669</ele><time>2026-04-23T11:59:16.456Z</time></trkpt><trkpt lat="43.4325177" lon="0.597391"><ele>241.5</ele><time>2026-04-23T11:59:18.456Z</time></trkpt><trkpt lat="43.4324914" lon="0.597283"><ele>241.33333333333331</ele><time>2026-04-23T11:59:21.456Z</time></trkpt><trkpt lat="43.4324671" lon="0.5971696"><ele>241.16666666666666</ele><time>2026-04-23T11:59:24.457Z</time></trkpt><trkpt lat="43.4324611" lon="0.5970462"><ele>241.0</ele><time>2026-04-23T11:59:27.457Z</time></trkpt><trkpt lat="43.4324623" lon="0.5969561"><ele>240.20000000000002</ele><time>2026-04-23T11:59:29.456Z</time></trkpt><trkpt lat="43.4324734" lon="0.5968382"><ele>239.40000000000003</ele><time>2026-04-23T11:59:32.456Z</time></trkpt><trkpt lat="43.4324969" lon="0.5967173"><ele>238.6</ele><time>2026-04-23T11:59:35.456Z</time></trkpt><trkpt lat="43.4325156" lon="0.596596"><ele>237.8</ele><time>2026-04-23T11:59:38.456Z</time></trkpt><trkpt lat="43.4325393" lon="0.5964772"><ele>237.0</ele><time>2026-04-23T11:59:41.456Z</time></trkpt><trkpt lat="43.4325758" lon="0.5963595"><ele>237.0</ele><time>2026-04-23T11:59:44.456Z</time></trkpt><trkpt lat="43.4326069" lon="0.5962415"><ele>237.0</ele><time>2026-04-23T11:59:47.456Z</time></trkpt><trkpt lat="43.4326311" lon="0.5961613"><ele>237.0</ele><time>2026-04-23T11:59:49.456Z</time></trkpt><trkpt lat="43.4326755" lon="0.5960578"><ele>237.0</ele><time>2026-04-23T11:59:52.456Z</time></trkpt><trkpt lat="43.4327171" lon="0.5959488"><ele>237.0</ele><time>2026-04-23T11:59:55.457Z</time></trkpt><trkpt lat="43.4327497" lon="0.5958728"><ele>237.0</ele><time>2026-04-23T11:59:57.456Z</time></trkpt><trkpt lat="43.4327822" lon="0.5957651"><ele>236.33333333333334</ele><time>2026-04-23T12:00:00.456Z</time></trkpt><trkpt lat="43.432813" lon="0.5956585"><ele>235.66666666666669</ele><time>2026-04-23T12:00:03.456Z</time></trkpt><trkpt lat="43.4328529" lon="0.5955609"><ele>235.0</ele><time>2026-04-23T12:00:06.456Z</time></trkpt><trkpt lat="43.4328965" lon="0.5954519"><ele>234.33333333333334</ele><time>2026-04-23T12:00:09.456Z</time></trkpt><trkpt lat="43.4329238" lon="0.5953233"><ele>233.66666666666669</ele><time>2026-04-23T12:00:12.457Z</time></trkpt><trkpt lat="43.4329562" lon="0.5952187"><ele>233.0</ele><time>2026-04-23T12:00:15.456Z</time></trkpt><trkpt lat="43.4329834" lon="0.5951083"><ele>233.00000000000003</ele><time>2026-04-23T12:00:18.456Z</time></trkpt><trkpt lat="43.4329864" lon="0.5950111"><ele>233.0</ele><time>2026-04-23T12:00:20.456Z</time></trkpt><trkpt lat="43.4329934" lon="0.5948901"><ele>233.0</ele><time>2026-04-23T12:00:23.456Z</time></trkpt><trkpt lat="43.433009" lon="0.5947739"><ele>233.0</ele><time>2026-04-23T12:00:26.456Z</time></trkpt><trkpt lat="43.4330079" lon="0.5946682"><ele>233.00000000000003</ele><time>2026-04-23T12:00:29.456Z</time></trkpt><trkpt lat="43.4330203" lon="0.5945599"><ele>233.0</ele><time>2026-04-23T12:00:32.457Z</time></trkpt><trkpt lat="43.4330344" lon="0.594454"><ele>233.00000000000003</ele><time>2026-04-23T12:00:35.456Z</time></trkpt><trkpt lat="43.4330479" lon="0.5943519"><ele>233.0</ele><time>2026-04-23T12:00:38.456Z</time></trkpt><trkpt lat="43.4330602" lon="0.594244"><ele>233.0</ele><time>2026-04-23T12:00:41.457Z</time></trkpt><trkpt lat="43.4330605" lon="0.594141"><ele>233.0</ele><time>2026-04-23T12:00:44.457Z</time></trkpt><trkpt lat="43.4330599" lon="0.5940196"><ele>233.00000000000003</ele><time>2026-04-23T12:00:47.456Z</time></trkpt><trkpt lat="43.4330631" lon="0.5938994"><ele>233.0</ele><time>2026-04-23T12:00:50.457Z</time></trkpt><trkpt lat="43.433089" lon="0.5937856"><ele>231.16666666666669</ele><time>2026-04-23T12:00:53.457Z</time></trkpt><trkpt lat="43.4330979" lon="0.5936672"><ele>229.33333333333334</ele><time>2026-04-23T12:00:56.456Z</time></trkpt><trkpt lat="43.4331094" lon="0.5935458"><ele>227.5</ele><time>2026-04-23T12:00:59.457Z</time></trkpt><trkpt lat="43.4331166" lon="0.5934164"><ele>225.66666666666669</ele><time>2026-04-23T12:01:02.457Z</time></trkpt><trkpt lat="43.4331167" lon="0.5932952"><ele>223.83333333333334</ele><time>2026-04-23T12:01:05.456Z</time></trkpt><trkpt lat="43.4331272" lon="0.5931804"><ele>222.0</ele><time>2026-04-23T12:01:08.457Z</time></trkpt><trkpt lat="43.4331293" lon="0.5930574"><ele>222.0</ele><time>2026-04-23T12:01:11.456Z</time></trkpt><trkpt lat="43.4331283" lon="0.5929345"><ele>222.0</ele><time>2026-04-23T12:01:14.456Z</time></trkpt><trkpt lat="43.4331337" lon="0.5927742"><ele>222.0</ele><time>2026-04-23T12:01:18.456Z</time></trkpt><trkpt lat="43.4331256" lon="0.5926736"><ele>222.0</ele><time>2026-04-23T12:01:20.456Z</time></trkpt><trkpt lat="43.4331388" lon="0.5925845"><ele>222.0</ele><time>2026-04-23T12:01:23.456Z</time></trkpt><trkpt lat="43.4331502" lon="0.5924684"><ele>222.0</ele><time>2026-04-23T12:01:26.456Z</time></trkpt><trkpt lat="43.433161" lon="0.5923736"><ele>221.33333333333334</ele><time>2026-04-23T12:01:28.456Z</time></trkpt><trkpt lat="43.4331692" lon="0.5922579"><ele>220.66666666666669</ele><time>2026-04-23T12:01:31.456Z</time></trkpt><trkpt lat="43.4331823" lon="0.5921388"><ele>220.0</ele><time>2026-04-23T12:01:34.456Z</time></trkpt><trkpt lat="43.4331772" lon="0.5920258"><ele>219.33333333333334</ele><time>2026-04-23T12:01:37.457Z</time></trkpt><trkpt lat="43.4331819" lon="0.5919098"><ele>218.66666666666669</ele><time>2026-04-23T12:01:40.456Z</time></trkpt><trkpt lat="43.433193" lon="0.5918042"><ele>218.0</ele><time>2026-04-23T12:01:43.456Z</time></trkpt><trkpt lat="43.4332038" lon="0.5917146"><ele>217.66666666666669</ele><time>2026-04-23T12:01:45.457Z</time></trkpt><trkpt lat="43.4332221" lon="0.5915568"><ele>217.33333333333334</ele><time>2026-04-23T12:01:49.456Z</time></trkpt><trkpt lat="43.4332368" lon="0.5914642"><ele>217.0</ele><time>2026-04-23T12:01:51.456Z</time></trkpt><trkpt lat="43.4332582" lon="0.5913806"><ele>216.66666666666669</ele><time>2026-04-23T12:01:53.456Z</time></trkpt><trkpt lat="43.4332758" lon="0.5912529"><ele>216.33333333333334</ele><time>2026-04-23T12:01:56.457Z</time></trkpt><trkpt lat="43.4332909" lon="0.5911686"><ele>216.0</ele><time>2026-04-23T12:01:58.456Z</time></trkpt><trkpt lat="43.4333164" lon="0.5910571"><ele>216.0</ele><time>2026-04-23T12:02:01.456Z</time></trkpt><trkpt lat="43.4333374" lon="0.5909365"><ele>216.0</ele><time>2026-04-23T12:02:04.456Z</time></trkpt><trkpt lat="43.4333733" lon="0.590814"><ele>216.0</ele><time>2026-04-23T12:02:07.456Z</time></trkpt><trkpt lat="43.4334085" lon="0.5907039"><ele>216.0</ele><time>2026-04-23T12:02:10.456Z</time></trkpt><trkpt lat="43.4334284" lon="0.5905965"><ele>216.0</ele><time>2026-04-23T12:02:13.456Z</time></trkpt><trkpt lat="43.4334446" lon="0.5904729"><ele>216.0</ele><time>2026-04-23T12:02:16.457Z</time></trkpt><trkpt lat="43.4334484" lon="0.5903675"><ele>215.5</ele><time>2026-04-23T12:02:19.456Z</time></trkpt><trkpt lat="43.4334563" lon="0.590243"><ele>215.0</ele><time>2026-04-23T12:02:22.457Z</time></trkpt><trkpt lat="43.4334554" lon="0.5901446"><ele>214.5</ele><time>2026-04-23T12:02:24.457Z</time></trkpt><trkpt lat="43.4334459" lon="0.5900545"><ele>214.0</ele><time>2026-04-23T12:02:26.457Z</time></trkpt><trkpt lat="43.4334344" lon="0.5899568"><ele>213.5</ele><time>2026-04-23T12:02:28.456Z</time></trkpt><trkpt lat="43.4334231" lon="0.5898365"><ele>213.0</ele><time>2026-04-23T12:02:31.456Z</time></trkpt><trkpt lat="43.4333821" lon="0.5897149"><ele>213.0</ele><time>2026-04-23T12:02:34.456Z</time></trkpt><trkpt lat="43.4333367" lon="0.589597"><ele>213.0</ele><time>2026-04-23T12:02:37.456Z</time></trkpt><trkpt lat="43.4332767" lon="0.5895021"><ele>213.0</ele><time>2026-04-23T12:02:40.457Z</time></trkpt><trkpt lat="43.4332125" lon="0.5894187"><ele>213.0</ele><time>2026-04-23T12:02:43.457Z</time></trkpt><trkpt lat="43.4331449" lon="0.5893365"><ele>213.0</ele><time>2026-04-23T12:02:46.456Z</time></trkpt><trkpt lat="43.4330936" lon="0.5892808"><ele>213.0</ele><time>2026-04-23T12:02:48.456Z</time></trkpt><trkpt lat="43.4330336" lon="0.5891993"><ele>211.57142857142856</ele><time>2026-04-23T12:02:51.456Z</time></trkpt><trkpt lat="43.432996" lon="0.5891162"><ele>210.14285714285714</ele><time>2026-04-23T12:02:53.456Z</time></trkpt><trkpt lat="43.4329677" lon="0.5890348"><ele>208.71428571428572</ele><time>2026-04-23T12:02:55.457Z</time></trkpt><trkpt lat="43.4329528" lon="0.5889051"><ele>207.28571428571428</ele><time>2026-04-23T12:02:58.456Z</time></trkpt><trkpt lat="43.4329464" lon="0.5888075"><ele>205.85714285714286</ele><time>2026-04-23T12:03:00.456Z</time></trkpt><trkpt lat="43.4329429" lon="0.588711"><ele>204.42857142857142</ele><time>2026-04-23T12:03:02.456Z</time></trkpt><trkpt lat="43.4329397" lon="0.5886176"><ele>203.0</ele><time>2026-04-23T12:03:04.457Z</time></trkpt><trkpt lat="43.4329349" lon="0.5884877"><ele>202.66666666666669</ele><time>2026-04-23T12:03:07.456Z</time></trkpt><trkpt lat="43.4329356" lon="0.5883991"><ele>202.33333333333334</ele><time>2026-04-23T12:03:09.456Z</time></trkpt><trkpt lat="43.4329332" lon="0.588276"><ele>202.0</ele><time>2026-04-23T12:03:12.456Z</time></trkpt><trkpt lat="43.4329246" lon="0.588152"><ele>201.66666666666669</ele><time>2026-04-23T12:03:15.456Z</time></trkpt><trkpt lat="43.4329159" lon="0.5880208"><ele>201.33333333333334</ele><time>2026-04-23T12:03:18.456Z</time></trkpt><trkpt lat="43.4329085" lon="0.5878988"><ele>201.0</ele><time>2026-04-23T12:03:21.457Z</time></trkpt><trkpt lat="43.4329023" lon="0.5878059"><ele>201.0</ele><time>2026-04-23T12:03:23.457Z</time></trkpt><trkpt lat="43.4328909" lon="0.5877192"><ele>201.0</ele><time>2026-04-23T12:03:25.456Z</time></trkpt><trkpt lat="43.4328727" lon="0.5875929"><ele>201.0</ele><time>2026-04-23T12:03:28.456Z</time></trkpt><trkpt lat="43.4328637" lon="0.5874675"><ele>201.0</ele><time>2026-04-23T12:03:31.456Z</time></trkpt><trkpt lat="43.4328476" lon="0.5873484"><ele>201.0</ele><time>2026-04-23T12:03:34.456Z</time></trkpt><trkpt lat="43.4328197" lon="0.5872327"><ele>201.0</ele><time>2026-04-23T12:03:37.456Z</time></trkpt><trkpt lat="43.4327972" lon="0.5871169"><ele>200.66666666666666</ele><time>2026-04-23T12:03:40.456Z</time></trkpt><trkpt lat="43.4327688" lon="0.5870069"><ele>200.33333333333331</ele><time>2026-04-23T12:03:43.456Z</time></trkpt><trkpt lat="43.4327215" lon="0.5868988"><ele>200.0</ele><time>2026-04-23T12:03:46.456Z</time></trkpt><trkpt lat="43.4326694" lon="0.5867943"><ele>199.66666666666666</ele><time>2026-04-23T12:03:49.457Z</time></trkpt><trkpt lat="43.4326472" lon="0.5867112"><ele>199.33333333333331</ele><time>2026-04-23T12:03:51.456Z</time></trkpt><trkpt lat="43.432623" lon="0.5866225"><ele>199.0</ele><time>2026-04-23T12:03:53.456Z</time></trkpt><trkpt lat="43.4325941" lon="0.5865117"><ele>198.99999999999997</ele><time>2026-04-23T12:03:56.457Z</time></trkpt><trkpt lat="43.4325612" lon="0.5863891"><ele>199.0</ele><time>2026-04-23T12:03:59.456Z</time></trkpt><trkpt lat="43.4325313" lon="0.5862665"><ele>199.0</ele><time>2026-04-23T12:04:02.456Z</time></trkpt><trkpt lat="43.4325" lon="0.5861745"><ele>199.0</ele><time>2026-04-23T12:04:04.456Z</time></trkpt><trkpt lat="43.4324703" lon="0.586063"><ele>198.99999999999997</ele><time>2026-04-23T12:04:07.457Z</time></trkpt><trkpt lat="43.4324456" lon="0.5859718"><ele>199.0</ele><time>2026-04-23T12:04:09.456Z</time></trkpt><trkpt lat="43.4324229" lon="0.5858845"><ele>198.99999999999997</ele><time>2026-04-23T12:04:11.456Z</time></trkpt><trkpt lat="43.432395" lon="0.5858003"><ele>199.0</ele><time>2026-04-23T12:04:13.456Z</time></trkpt><trkpt lat="43.4323659" lon="0.5857213"><ele>199.0</ele><time>2026-04-23T12:04:15.456Z</time></trkpt><trkpt lat="43.4323371" lon="0.5856144"><ele>199.0</ele><time>2026-04-23T12:04:18.457Z</time></trkpt><trkpt lat="43.4323038" lon="0.5855284"><ele>199.0</ele><time>2026-04-23T12:04:20.456Z</time></trkpt><trkpt lat="43.4322799" lon="0.5854453"><ele>198.99999999999997</ele><time>2026-04-23T12:04:22.456Z</time></trkpt><trkpt lat="43.4322658" lon="0.5853519"><ele>199.0</ele><time>2026-04-23T12:04:24.456Z</time></trkpt><trkpt lat="43.4322248" lon="0.5852307"><ele>199.39999999999998</ele><time>2026-04-23T12:04:27.456Z</time></trkpt><trkpt lat="43.4321682" lon="0.5851214"><ele>199.8</ele><time>2026-04-23T12:04:30.456Z</time></trkpt><trkpt lat="43.4321244" lon="0.5850343"><ele>200.2</ele><time>2026-04-23T12:04:32.457Z</time></trkpt><trkpt lat="43.432081" lon="0.5849276"><ele>200.60000000000002</ele><time>2026-04-23T12:04:35.456Z</time></trkpt><trkpt lat="43.4320414" lon="0.5848028"><ele>201.0</ele><time>2026-04-23T12:04:38.456Z</time></trkpt><trkpt lat="43.4320112" lon="0.5846813"><ele>201.0</ele><time>2026-04-23T12:04:41.457Z</time></trkpt><trkpt lat="43.4319792" lon="0.5845621"><ele>201.0</ele><time>2026-04-23T12:04:44.457Z</time></trkpt><trkpt lat="43.4319532" lon="0.5844416"><ele>201.0</ele><time>2026-04-23T12:04:47.456Z</time></trkpt><trkpt lat="43.4319402" lon="0.5843554"><ele>201.0</ele><time>2026-04-23T12:04:49.456Z</time></trkpt><trkpt lat="43.4319307" lon="0.5842353"><ele>201.0</ele><time>2026-04-23T12:04:52.456Z</time></trkpt><trkpt lat="43.4319169" lon="0.5841132"><ele>201.0</ele><time>2026-04-23T12:04:55.457Z</time></trkpt><trkpt lat="43.4319138" lon="0.5839924"><ele>201.0</ele><time>2026-04-23T12:04:58.456Z</time></trkpt><trkpt lat="43.4319078" lon="0.5838798"><ele>201.0</ele><time>2026-04-23T12:05:01.457Z</time></trkpt><trkpt lat="43.4319074" lon="0.5837692"><ele>201.0</ele><time>2026-04-23T12:05:04.457Z</time></trkpt><trkpt lat="43.431981" lon="0.5837052"><ele>201.0</ele><time>2026-04-23T12:05:07.456Z</time></trkpt><trkpt lat="43.4320676" lon="0.5836997"><ele>201.0</ele><time>2026-04-23T12:05:10.456Z</time></trkpt><trkpt lat="43.4321585" lon="0.5836852"><ele>201.0</ele><time>2026-04-23T12:05:13.456Z</time></trkpt><trkpt lat="43.4322368" lon="0.5836619"><ele>201.0</ele><time>2026-04-23T12:05:16.456Z</time></trkpt><trkpt lat="43.432306" lon="0.5836958"><ele>203.0</ele><time>2026-04-23T12:05:19.456Z</time></trkpt><trkpt lat="43.432388" lon="0.5836914"><ele>203.0</ele><time>2026-04-23T12:05:23.456Z</time></trkpt><trkpt lat="43.4324173" lon="0.5836097"><ele>201.0</ele><time>2026-04-23T12:05:29.456Z</time></trkpt><trkpt lat="43.4324173" lon="0.5836097"><ele>201.0</ele><time>2026-04-23T12:05:29.456Z</time></trkpt></trkseg></trk></gpx>